Filtrer par Nom Sexe Groupe d'age
LEPAPE Marmotte Granfondo Alpes 2006
RG. DOS. TEMPS CAT RG. POINTS
1 1 NEGRINI EMANUELE 05:50:30:000 D 1 345.00 PIANORO BO, ITALIE
2 290 SALA STEFANO 05:53:27:000 D 2 343.85 villasanta mb, Italie
3 6 DEKKER BERT 06:12:38:000 D 3 342.70 LEKKERKERPIK, Pays-Bas
4 102 ROUX MICHEL 06:14:41:000 E 1 345.00 DIGNE LES BAINS, FRANCE
5 2 HIDDEMA OEGE 06:16:00:000 D 4 341.55 GRONINGEN, Pays-Bas
6 294 MILESI CHRISTIAN 06:17:57:000 C 1 345.00 BOURG EN BRESSE, FRANCE
7 372 SNEL MICHEL 06:19:14:000 D 5 340.40 PLOMBIERES LES BAINS, FRANCE
8 47 LAINE CHRISTOPHE 06:20:50:000 D 6 339.25 LA SEYNE S/MER, FRANCE
9 79 BILLOT BENJAMIN 06:21:07:000 C 2 343.85 VERCEL, FRANCE
10 136 WIERSMA JEFFREY 06:21:41:000 C 3 342.70 GRAVENZANDE, Pays-Bas
11 342 PIJPERS HANS 06:24:57:000 D 7 338.10 OOSTERHOUT, Pays-Bas
12 283 GOUTILLE CHRISTOPHE 06:25:01:000 C 4 341.55 RIORGES, FRANCE
13 295 CHEVALIER PIERRE 06:26:13:000 E 2 343.85 VILLIEU, FRANCE
14 198 SMITS SANDER 06:26:58:000 C 5 340.40 UTRECHT, Pays-bas
15 134 KNEPPERS PAUL 06:28:18:000 C 6 339.25 DELFT, Pays-bas
16 398 PETIOT YOANN 06:30:20:000 C 7 338.10 JARRIE, FRANCE
17 101 MESTRE BRUNO 06:30:38:000 D 8 336.95 CASTELLANE, FRANCE
18 172 CALONNE OLIVIER 06:32:06:000 D 9 335.80 LE CREUSOT, FRANCE
19 445 NUYENS HANS 06:33:08:000 D 10 334.65 OUD TURNHOUT, BELGIQUE
20 157 MOREL GILLES 06:34:36:000 F 1 345.00 ANNECY LE VIEUX, FRANCE
21 266 GRONHEID WOUTER 06:36:08:000 C 8 336.95 Maastricht, Pays-Bas
22 34 RICHARD DAMIEN 06:37:26:000 C 9 335.80 EPINAL, France
23 304 GRAAFMANS SJEF 06:38:27:000 D 11 333.50 DONGEN, Pays-bas
24 209 PERRAUDIN FLORIAN 06:38:33:000 C 10 334.65 VERSEGERES, Suisse
25 123 HUTS OLIVIER 06:40:20:000 D 12 332.35 TIENEN, BELGIQUE
26 573 LOOMS ALAN 06:41:17:000 D 13 331.20 EEXT, Pays-Bas
27 138 PHILIPONA BRUNO 06:41:53:000 D 14 330.05 MEAUX, FRANCE
28 113 SEVENANTS TOM 06:41:54:000 D 15 328.90 ZOUTLEEUW, BELGIQUE
29 182 VANDENHOUDT RAF 06:41:55:000 E 3 342.70 DIEST, BELGIQUE
30 378 BLANCO IGOR 06:42:20:000 C 11 333.50 ORDUNA VIZCAYA, ESPAGNE
31 131 REIJMERS RUUD 06:42:23:000 D 16 327.75 HERTOGENBOSCH, Pays-Bas
32 216 STORME MARNICK 06:43:01:000 E 4 341.55 Ieper, Belgique
33 239 GERFEU NICOLAS 06:44:25:000 D 17 326.60 SAINT LATTIER, FRANCE
34 380 TASSI JEAN-MARCEL 06:44:49:000 F 2 343.85 NICE, FRANCE
35 376 COTTY MIKE 06:44:54:000 C 12 332.35 , Royaume-Uni
36 383 CELLI ALESANDRO 06:44:58:000 C 13 331.20 CORTONA AR, ITALIE
37 496 GELENS ERWIN 06:45:17:000 D 18 325.45 BREDA, Pays-Bas
38 1485 HAAST STEFAN 06:45:53:000 C 14 330.05 RIJSBERGEN, Pays-Bas
39 2473 HARTKAMP TOM 06:46:21:000 C 15 328.90 SPANBROEK, Pays-Bas
40 193 MONGARDI SALVATORE 06:46:30:000 G 1 345.00 S. LAZZARO (BOLOGNA), ITALIE
41 391 JUHEN NICOLAS 06:46:34:000 C 16 327.75 Mignovillard, France
42 238 RIAS EMMANUEL 06:47:11:000 D 19 324.30 SEYSSINET, FRANCE
43 199 RAJAT CHRISTOPHE 06:47:16:000 D 20 323.15 LES ADRETS, FRANCE
44 248 DE BOEL PATRICK 06:47:23:000 D 21 322.00 TESSENDERLO, BELGIQUE
45 217 HAVERMANS RUUD 06:49:03:000 E 5 340.40 NIEUW VOSSEMEER, Pays-Bas
46 174 COMBES JEAN MARC 06:50:40:000 E 6 339.25 FUVEAU, FRANCE
47 4404 RENARD FREDERIC 06:51:25:000 C 17 326.60 CALLEVILLE, FRANCE
48 6039 SPAERKEER MARIO 06:52:58:000 D 22 320.85 BERLARE, BELGIQUE
49 464 VAN VUGHT HENRI 06:53:01:000 E 7 338.10 GIESSEN, Pays-Bas
50 273 NIELSEN MADS 06:53:13:000 C 18 325.45 AARHUS C, DANEMARK
51 369 VINCENDET ERIC 06:53:18:000 E 8 336.95 LA CELLE ST CLOUD, FRANCE
52 390 PIGEAU SYLVAIN 06:53:21:000 C 19 324.30 MARINES, FRANCE
53 184 HILAIRE RAPHAEL 06:53:23:000 D 23 319.70 FONS, FRANCE
54 24 BABAD NICOLAS 06:53:31:000 C 20 323.15 VILLEFRANCHE SUR SAONE, FRANCE
55 242 VAN HAREN JOOST 06:53:45:000 C 21 322.00 BOXMEER, Pays-Bas
56 247 DE HEER ARJAN 06:54:22:000 D 24 318.55 SCHAGEN, Pays-Bas
57 779 NISSEN KRISTIAN 06:54:29:000 C 22 320.85 VIBY JYLLAND, DANEMARK
58 240 BRUNEL FLORIAN 06:54:42:000 C 23 319.70 CRAN GEVRIER, FRANCE
59 17 PETERS JIM 06:55:27:000 D 25 317.40 Loughborough, Royaume-Uni
60 241 VAN DER WAL MARTIN 06:56:00:000 C 24 318.55 GOUDA, Pays-Bas
61 4775 BROCHOT BERTRAND 06:56:06:000 C 25 317.40 CHEVAL BLANC, FRANCE
62 1202 WOESTENBERG PETER 06:56:10:000 D 26 316.25 PAPENDRECHT, Pays-Bas
63 316 VAN GENDT RON 06:56:40:000 E 9 335.80 EINDHOVEN, Pays-Bas
64 359 CADET FREDERIC 06:56:53:000 D 27 315.10 ARLES, FRANCE
65 521 GIJSBERTSE PETER 06:57:00:000 D 28 313.95 BERGHEM, Pays-bas
66 53 PERRA HENRI 06:57:42:000 E 10 334.65 DARDILLY, France
67 2426 JANSSEN ZJEF 06:57:48:000 C 26 316.25 LUMMEN, BELGIQUE
68 180 LUGLIA DANIEL 06:57:50:000 E 11 333.50 PIERREFEU, France
69 103 EDOUARD MICHAEL 06:58:03:000 C 27 315.10 SAINT NAZAIRE, FRANCE
70 267 LANKHAAR KOEN 06:58:22:000 D 29 312.80 HAARLE, Pays-Bas
71 6560 CHIABUDINI MARCO 06:59:05:000 C 28 313.95 FREIBURG, Allemagne
72 5406 GARCIA DE ENTERRIA JAVIER 06:59:21:000 E 12 332.35 MADRID, ESPAGNE
73 394 RIETVELD LARS 06:59:32:000 E 13 331.20 OUDEWATER, Pays-Bas
75 41 LANCELOT MICHEL 06:59:39:000 E 14 330.05 SAINT GENIS LAVAL, France
76 287 JOLY XAVIER 06:59:59:000 D 31 310.50 LADOIX-SERRIGNY, FRANCE
77 208 FERKET JO 07:00:03:000 F 3 342.70 VALKENBURG, Pays-bas
78 226 SCHEFFER FRANK 07:00:17:000 E 15 328.90 DEN DOLDER, Pays-bas
79 758 VANDERMISSEN WALTER 07:00:32:000 E 16 327.75 TIENEN, BELGIQUE
80 259 POUTOT FRANCIS 07:01:11:000 D 32 309.35 , FRANCE
81 11 WESSELS FRANS 07:01:41:000 E 17 326.60 OOSTERHOUT, Pays-bas
82 2599 ENGLISH ROBERT 07:02:14:000 C 29 312.80 BRACKNELL, Royaume-Uni
83 44 REMY ALAIN 07:02:51:000 D 33 308.20 ST GENEST MALIFAUX, FRANCE
84 115 DI FRUSCIA GERMAIN 07:03:01:000 E 18 325.45 VARCES ALLIERES ET RISSET, FRANCE
85 2340 DE VRIES HUIB 07:03:08:000 E 19 324.30 TILBURG, Pays-Bas
86 15 CRAMER TOMMY 07:03:14:000 C 30 311.65 GREVE, DANEMARK
87 6153 RELOU TOM 07:03:16:000 C 31 310.50 RIJSWIJK, Pays-Bas
88 119 JUILLARD PASCAL 07:03:30:000 E 20 323.15 ORCINES, FRANCE
89 305 HOMMES JOHN 07:03:31:000 D 34 307.05 DEDEMSVAART, Pays-Bas
90 161 BARTHELEMY JEAN CLAUDE 07:03:38:000 D 35 305.90 PONTCHARRA, France
91 260 LEONARD EDDY 07:03:49:000 D 36 304.75 BOURG D OISANS, FRANCE
92 99 MULLER SEILLER CHRISTINE 07:04:04:000 AB 1 345.00 HAEGEN, France
93 353 VAN BYNEN LEON 07:04:27:000 D 37 303.60 HAARSTEE, Pays-Bas
94 2201 CANOY BASTIEN 07:05:44:000 C 32 309.35 DORDRECHT, Pays-Bas
95 284 CALADO CLEMENT 07:05:55:000 C 33 308.20 LANGEY, FRANCE
96 158 WOUTERS BERT 07:06:25:000 E 21 322.00 KALMTHOUT, BELGIQUE
97 397 PERRONE DAVID 07:06:38:000 D 38 302.45 BOURG D OISANS, FRANCE
98 194 IMBERT PHILIPPE 07:06:48:000 E 22 320.85 VILLARD DE LANS, FRANCE
99 191 CELLIER JEAN PIERRE 07:07:01:000 E 23 319.70 CRAPONNE, FRANCE
100 117 NAVARRO SERGE 07:07:10:000 E 24 318.55 MARTIGUES, FRANCE
101 68 GIORGALLA SERGE 07:07:16:000 E 25 317.40 paris, France
102 354 GENIN LIONEL 07:07:29:000 E 26 316.25 LANS EN VERCORS, FRANCE
103 1153 VAN DER POLL STIJN 07:07:36:000 D 39 301.30 ETTEN-LEUR, Pays-Bas
104 154 BONIFACE BRETT 07:07:43:000 C 34 307.05 VICTORIA, CANADA
105 26 FRIGO MAURIZIO 07:07:47:000 D 40 300.15 LONATE POZZOLO (VA), ITALIE
106 3125 CURTY DAVID 07:07:55:000 C 35 305.90 DIGNA, FRANCE
107 3383 JANSSEN JOS 07:08:01:000 D 41 299.00 WIJCHEN, Pays-Bas
108 127 COLLARD CHRISTOPHE 07:08:34:000 E 27 315.10 LE BESSAT, FRANCE
109 2175 MEYSMANS JAN 07:08:42:000 C 36 304.75 ASSE, BELGIQUE
110 5272 WHITFIELD PAUL 07:08:57:000 C 37 303.60 WIMBORNE, Royaume-Uni
111 13 GHIJSENS MARC 07:09:04:000 D 42 297.85 BORGLOON, BELGIQUE
112 373 BERNEY GILLES 07:09:10:000 D 43 296.70 LE SENTIER, SUISSE
113 437 HARREVELT HENK 07:09:37:000 F 4 341.55 DELFT, Pays-Bas
114 205 CLINTON TORBEN 07:10:02:000 D 44 295.55 J’GERSPRIS, DANEMARK
115 246 HERTOGH MICHEL 07:10:10:000 F 5 340.40 WOUW, Pays-bas
116 237 VAN SEETERS BORIS 07:10:20:000 D 45 294.40 MONTFOORT, Pays-Bas
117 221 TOZZI ALEXANDRE 07:10:32:000 D 46 293.25 LE RAINCY, FRANCE
118 2627 BUIJS MARCO 07:10:52:000 D 47 292.10 GRIENDTSVEEN, Pays-Bas
119 385 TRUILLET STEPHANE 07:11:01:000 C 38 302.45 Saint Sauveur, France
120 253 DE MEUTER STEFAAN 07:11:12:000 D 48 290.95 Asse, Belgique
121 2131 STARZYNSKI ADAM 07:11:46:000 D 49 289.80 NIEPORET, POLOGNE
122 19 MORGAN IAN 07:11:54:000 D 50 288.65 BRENTWOOD, Royaume-Uni
123 212 BROENDUM SOEREN 07:11:55:000 D 51 287.50 SKANDERBORG, DANEMARK
124 25 HEIJLTJES HENRI 07:11:59:000 D 52 286.35 NIJMEGEN, Pays-Bas
125 393 JUHEN SéBASTIEN 07:12:01:000 C 39 301.30 MIJOUX, FRANCE
126 250 DUCHAU DAVY 07:12:29:000 C 40 300.15 GERAARDSBERGEN, Belgique
127 1357 GONZALO ALVARO 07:12:34:000 C 41 299.00 SONDIKA, ESPAGNE
128 2279 VAN BERKEL JORIS 07:13:50:000 C 42 297.85 HOUTEN, Pays-Bas
129 32 LAMONTAGNE PIERRE MARC 07:14:13:000 E 28 313.95 ST AUBIN, FRANCE
130 156 VAN GERVEN HAROLD 07:14:15:000 D 53 285.20 EERSEL, Pays-Bas
131 1325 DE RYCKE THOMAS 07:14:20:000 C 43 296.70 GENT, BELGIQUE
132 63 JASSERAND BRUNO 07:14:21:000 E 29 312.80 LA MOTTE, FRANCE
133 255 TEN BRINKE NIEK 07:14:30:000 C 44 295.55 TILBURG, Pays-Bas
134 8 MALLIEN ANDRE 07:15:23:000 D 54 284.05 CINEY EMPTINNE, BELGIQUE
135 1923 RAEYMAEKERS LUC 07:15:31:000 E 30 311.65 RETIE, BELGIQUE
136 281 DE LOOR LUC 07:15:41:000 E 31 310.50 ZOTTEGEM, BELGIQUE
137 363 FERLAND MARC 07:15:56:000 E 32 309.35 LE SENTIER , SUISSE
138 27 MERMANS LUC 07:16:09:000 E 33 308.20 ARENDONK, BELGIQUE
139 5974 DE KOK DYLAN 07:16:12:000 D 55 282.90 STEENBERGEN, Pays-Bas
140 18 BOSSUYT OLIVIER 07:16:26:000 D 56 281.75 WAREGEM, Belgique
141 200 TATTU CHRISTOPHE 07:16:34:000 D 57 280.60 BOULT, FRANCE
142 433 BOLAND AXEL 07:16:47:000 D 58 279.45 HAARLEM, Pays-Bas
143 2592 VAN LOOY JAN 07:17:12:000 E 34 307.05 BEERSE, BELGIQUE
144 1961 MORTIER THIERRY 07:17:16:000 E 35 305.90 MERELBEKE, BELGIQUE
145 203 VERSCHRAEGEN KRIJN 07:17:31:000 D 59 278.30 SINT LIEVENS HOUTEM, BELGIQUE
146 319 BREEDT MICHAEL 07:17:48:000 C 45 294.40 ZAANDAM, Pays-Bas
147 121 CRESPY BRUNO 07:18:12:000 E 36 304.75 CLARET, FRANCE
148 5832 DE KEIJZER STIJN 07:18:15:000 C 46 293.25 AMSTERDAM, Pays-Bas
149 196 BERAUD RICHARD 07:18:19:000 E 37 303.60 CHARBONNIERES, France
150 1812 ZWIRS IVANO 07:18:27:000 E 38 302.45 KWINTSHEUL, Pays-Bas
151 5871 BOYD ANDREW 07:18:31:000 D 60 277.15 FELDMEILEN ZURICH, SUISSE
152 171 MENDEZ-NAVARRO STEPHANE 07:19:12:000 D 61 276.00 SARRAS, FRANCE
153 755 COECKELBERGHS DANNY 07:19:16:000 E 39 301.30 TIENEN, BELGIQUE
154 2303 WINGENS PATRICK 07:19:16:000 D 62 274.85 OSS, Pays-Bas
155 1330 PIERINI STEPHEN 07:19:29:000 D 63 273.70 CHELTENHAHAM, Royaume-Uni
156 1201 ALBERT DANA 07:19:42:000 D 64 272.55 ALBANY CA, United States
157 125 JANSE JOHNNY 07:19:53:000 D 65 271.40 RENESSE, Pays-bas
158 189 MARAGA CLAUDE 07:19:53:000 F 6 339.25 LAMBESC, France
159 6237 BUYVOETS RICHARD 07:20:00:000 E 40 300.15 HAAREN, Pays-bas
160 56 PASTOR JOSE LUIS 07:20:06:000 D 66 270.25 TRAVAILLAN, FRANCE
161 30 DE CRAENE GINO 07:20:10:000 E 41 299.00 WAARSCHOOT, BELGIQUE
162 214 REYNIERS EDDY 07:20:13:000 E 42 297.85 ZOERSEL, BELGIQUE
163 5320 SCHLEYER MARC 07:20:43:000 D 67 269.10 KARLSRUHE, ALLEMAGNE
164 817 KEIGHTLEY JOHN 07:20:46:000 E 43 296.70 CAERNARFON, Royaume-Uni
165 67 ESPOSITO ANDRE 07:20:47:000 F 7 338.10 SAINT JEAN DE MAURIENNE, France
166 3970 HARTONG RUTGER 07:21:09:000 C 47 292.10 AMSTERDAM, Pays-Bas
167 5946 PULS ROBIN 07:21:09:000 C 48 290.95 AMSTERDAM, Pays-Bas
168 356 BOUTOUX ALAIN 07:21:31:000 F 8 336.95 DARDILLY, FRANCE
169 368 SCHUPBACH LAURENT 07:21:59:000 D 68 267.95 LE BRASSUS, Suisse
170 1715 VAN DER TANG JORIS 07:22:06:000 C 49 289.80 ROELOFARENDSVEEN, Pays-Bas
171 557 ELFRINK MARCEL 07:22:07:000 E 44 295.55 APELDOORN, Pays-bas
172 73 AMIOT EDOUARD 07:22:11:000 C 50 288.65 BESANCON, FRANCE
173 1268 BRANDY GAEL 07:22:13:000 D 69 266.80 ST LEGIER, SUISSE
174 509 PLATERINGEN HERBERT 07:22:33:000 C 51 287.50 TILBURG, Pays-Bas
175 96 PATUEL IAN 07:22:39:000 E 45 294.40 BEVILLE LE COMTE, France
176 206 SCHOOFS DIRK 07:22:40:000 D 70 265.65 LEOPOLDSBURG, BELGIQUE
177 339 SALIOU MICHEL 07:22:54:000 D 71 264.50 CARANTEC, FRANCE
178 878 BERNAGIE LUC 07:22:55:000 E 46 293.25 ZOTTEGEM, BELGIQUE
179 392 GAUTHIER SEBASTIEN 07:23:04:000 D 72 263.35 ST SORLIN EN BUGEY, FRANCE
180 1257 WOUTERS CHRIS 07:23:09:000 C 52 286.35 MOL, BELGIQUE
181 1332 RUTS GUY 07:23:14:000 D 73 262.20 WEELDE, BELGIQUE
182 222 STIENNON BERNARD 07:23:18:000 E 47 292.10 WAVRE, BELGIQUE
183 2847 ROLLET OLIVIER 07:23:38:000 D 74 261.05 CERNY, FRANCE
184 126 ABEL JEAN PHILIPPE 07:23:39:000 E 48 290.95 MOURS ST EUSEBE, France
185 54 LEUCKX MARC 07:23:49:000 E 49 289.80 LENNIK, BELGIQUE
186 58 CASIMIR IGOR 07:23:49:000 D 75 259.90 NIVOLAS VERMELLE, France
187 66 PERZO CLAUDE 07:23:49:000 E 50 288.65 HA NQI, Viet nam
188 1203 VAN DE ZANDE CEES 07:23:55:000 E 51 287.50 ST WILLEBRORD, Pays-Bas
189 82 BURGER SJORS 07:24:14:000 F 9 335.80 LEKKERKERK, Pays-Bas
190 1749 BAETS FRANK 07:24:16:000 C 53 285.20 ARNHEM, Pays-Bas
191 381 VAN DER HEIJDEN JEROEN 07:24:19:000 C 54 284.05 BLADEL, Pays-Bas
192 686 WOOTERS GEERT 07:24:33:000 E 52 286.35 KALMTHOUT, BELGIQUE
193 1430 LAMBREGTS MARCEL 07:24:56:000 E 53 285.20 METEREN, Pays-Bas
194 1137 DE RIJK SANDER 07:25:02:000 D 76 258.75 , Pays-Bas
195 4238 DANGUY-HOTE SYLVAIN 07:25:16:000 D 77 257.60 CREYSSE, FRANCE
196 4502 TAMAGNE GILLES 07:25:37:000 E 54 284.05 GONFARON, FRANCE
197 244 VOGELS WILLIAM 07:25:44:000 D 78 256.45 TESSENDERLO, BELGIQUE
198 638 MELIN ERIK 07:25:50:000 C 55 282.90 GOTEBORG, 33
199 341 MURRELL PHILIP 07:25:53:000 D 79 255.30 LONDRES, Royaume-Uni
200 144 KILMAN ALAIN 07:25:55:000 E 55 282.90 ST EUPHEMIE, FRANCE
201 114 LEDIN PHILIPPE 07:26:01:000 D 80 254.15 VALLEIRY, FRANCE
202 328 MACHIELSEN JOHANNES 07:26:01:000 D 81 253.00 OIRSCHOT, Pays-Bas
203 881 VILASECA GONZALO 07:26:23:000 D 82 251.85 ARMENTERA GIRONA, ESPAGNE
204 3939 WOLTHUIS BART 07:26:26:000 C 56 281.75 HANK, Pays-Bas
205 116 NIEUWENHUIS HENK 07:26:47:000 E 56 281.75 RIJSSEN, Pays-Bas
206 1941 VANDERVEKEN STEFAAN 07:27:05:000 E 57 280.60 LOCHRISTI, BELGIQUE
207 1483 HAAST JOHN 07:27:08:000 E 58 279.45 RIJSBERGEN, Pays-Bas
208 1484 HAAST RENE 07:27:08:000 E 59 278.30 RIJSBERGEN, Pays-Bas
209 270 VAN SEETERS BRAM 07:27:18:000 D 83 250.70 MONTFOORT, Pays-Bas
210 155 BORMIDA GIOVANNI 07:27:21:000 D 84 249.55 DEGO, ITALIE
211 939 VERBEEREN DAVY 07:27:26:000 C 57 280.60 HAALTERT, BELGIQUE
212 2421 VAN DE BELT GERVIN 07:27:54:000 C 58 279.45 HASSELT, Pays-Bas
213 422 DE PORTO ANTON 07:28:03:000 F 10 334.65 BERGEN, Pays-Bas
214 2300 OOSTLAND STEN 07:28:04:000 C 59 278.30 HARDERWIJK, Pays-Bas
215 3322 RAVEN HANS 07:28:05:000 D 85 248.40 HADERWIJK, Pays-Bas
216 220 LAJUSTICIA RODRIGUEZ FRANCISCO 07:28:10:000 F 11 333.50 HERNANI (GUIPUZCOA), Espagne
217 130 HAYCRAFT MARK 07:28:18:000 E 60 277.15 LARAGNE MONTEGLIN, FRANCE
218 345 BIZIEN ROLAND 07:28:44:000 D 86 247.25 BREST, FRANCE
219 2332 RAMAKERS JOHAN 07:28:44:000 F 12 332.35 HEERUGOWAARD, Pays-Bas
220 932 ZUCCOLI ROBERTO 07:29:53:000 D 87 246.10 MODENA, ITALIE
221 837 TASSAERT MAXIM 07:30:00:000 D 88 244.95 TIELT, BELGIQUE
222 4364 HEPTON RUSSELL 07:30:01:000 E 61 276.00 LEEDS, Royaume-Uni
223 159 JOUNIAUX HERVE 07:30:09:000 D 89 243.80 LANS EN VERCORS, FRANCE
224 1408 DE LOOR KENNETH 07:30:23:000 C 60 277.15 GENTBRUGGE, BELGIQUE
225 2424 VAN DER LINDEN DAVID 07:30:38:000 D 90 242.65 MIERLO, Pays-Bas
226 289 DE KORT EDO 07:30:52:000 C 61 276.00 BILTHOVEN, Pays-Bas
227 2924 LAZZAROTTI LAURENT 07:30:57:000 D 91 241.50 molesme, France
228 1289 VOS HENDRIK 07:31:07:000 D 92 240.35 GENT, BELGIQUE
229 3323 SCHRAVERUS MARC 07:31:09:000 D 93 239.20 HARDERWIJK, Pays-Bas
230 1394 VERSTRAETEN HERMAN 07:31:38:000 E 62 274.85 MELSELE, BELGIQUE
231 179 TEPPA SOULAGES OLIVIER 07:31:53:000 C 62 274.85 TRETS, FRANCE
232 320 MULDERIJ GERT 07:31:55:000 D 94 238.05 Elim, Pays-Bas
233 1074 SCOPETANI FRANCESCO 07:31:59:000 E 63 273.70 RUFINA-MONTEBONELLO, ITALIE
234 908 CHEVROLET ARNE 07:32:03:000 C 63 273.70 TIELT, BELGIQUE
235 6246 DEWIT JEROME 07:32:10:000 C 64 272.55 RIXENSART, BELGIQUE
236 1615 THOMASSEN GERT JAN 07:32:15:000 C 65 271.40 STEENBERGEN, Pays-Bas
237 5830 GRUYTHUYZEN TWAN 07:32:18:000 C 66 270.25 OSS, Pays-Bas
238 515 LIEBREGTS THEO 07:32:19:000 E 64 272.55 OOSTELBBEERS, Pays-Bas
239 2079 ALASTAIR DAVIS 07:32:22:000 D 95 236.90 HENLEY ON THAMES, Royaume-Uni
240 2143 MICHON CHRISTOPHE 07:32:22:000 D 96 235.75 OYTIER ST OBLAS, FRANCE
241 69 BERTRAND JEAN-PAUL 07:32:31:000 F 13 331.20 SAINTE FOY LES LYON, FRANCE
242 301 BOLSENBROEK MAURICE 07:32:33:000 C 67 269.10 APELDOORN, Pays-Bas
243 269 VAN WAGENINGEN MARCO 07:32:36:000 D 97 234.60 UTRECHT, Pays-Bas
244 2517 MOLLER HENRIK 07:32:36:000 D 98 233.45 FREDERIKSVAERK, DANEMARK
245 5422 LAURYSSEN FREDDY 07:32:43:000 E 65 271.40 BRECHT, BELGIQUE
246 4488 EZANIC SEBASTIEN 07:32:45:000 C 68 267.95 CAMPENEAC, FRANCE
247 504 VAN HAMOND BJORN 07:32:52:000 C 69 266.80 TILBURG, Pays-Bas
248 268 VAN KAPELLE WIM 07:32:53:000 E 66 270.25 ETHEN, Pays-Bas
249 2325 VAN DER ZANDE FRANCOIS 07:32:53:000 D 99 232.30 KAPELLEN, BELGIQUE
250 2641 BIGGS BEN 07:32:54:000 D 100 231.15 CAMBRIDGE, Royaume-Uni
251 6022 KUIPER HENK 07:33:10:000 E 67 269.10 ROUVEEN, Pays-Bas
252 665 VAN TICHELEN WIM 07:33:19:000 C 70 265.65 ESSEN, BELGIQUE
253 204 COSIJNS GRATIEN 07:33:28:000 E 68 267.95 KRUISHOUTEM, BELGIQUE
254 761 VANSCHOONBEEK GUIDO 07:33:51:000 F 14 330.05 Herk-de-Stad, Belgique
255 6608 NICHOLLS THOMAS 07:33:59:000 C 71 264.50 PERTH, 11
256 785 BERVOETS PETER 07:34:15:000 E 69 266.80 LUMMEN, Belgique
257 6501 PERRIN JEAN LUC 07:34:16:000 E 70 265.65 OUTRIAZ, FRANCE
258 1590 VERTONGEN MR 07:34:24:000 F 15 328.90 ROTSELAAR, BELGIQUE
259 177 SANCISI MICHELE 07:34:27:000 F 16 327.75 SANTARCANGELO DI R., ITALIE
260 2500 LAZZARI GIANNI 07:34:35:000 D 101 230.00 COLLIO (BRESCIA), ITALIE
261 989 FAURIE ERIC 07:34:37:000 D 102 228.85 ST ETIENNE, France
262 1073 PERUZZI PAOLO 07:34:55:000 D 103 227.70 MONTEVARCHI, ITALIE
263 2840 DUMONT FRANCK 07:35:01:000 D 104 226.55 LA FERTE ALAIS, France
264 4760 BROCHOT VINCENT 07:35:34:000 C 72 263.35 LAMORLAYE, FRANCE
265 801 GUENNEUGUES GILLES 07:35:53:000 E 71 264.50 LANGUIDIC, FRANCE
266 6518 SAGNARD PATRICK HENRY 07:35:56:000 D 105 225.40 MONTALIEU VERCIEU, FRANCE
267 2643 SYMONS DIGBY 07:35:57:000 D 106 224.25 CAMBRIDGE, Royaume-Uni
268 278 ANQUETIL JEAN FRANCOIS 07:36:00:000 E 72 263.35 NOTRE DAME DE BONDEVILLE, FRANCE
269 601 KROEZEN WILCO 07:36:07:000 D 107 223.10 NIEUWERRORD, Pays-Bas
270 677 VAN GILS KOEN 07:36:12:000 C 73 262.20 Essen, Belgique
271 213 RUYMEN MARC 07:36:16:000 E 73 262.20 GINGELOM, BELGIQUE
272 662 PETERSEN BRUNO 07:36:18:000 D 108 221.95 Albertslund, Danemark
273 6276 REMY BERTRAND 07:36:21:000 D 109 220.80 MONTREUIL, FRANCE
274 72 DESPLACES ALAIN 07:36:57:000 G 2 343.85 POLEYMIEUX AU MT D OR, FRANCE
275 6458 RIVOIRARD GUILLAUME 07:37:01:000 D 110 219.65 MONTPEZAT D AG, FRANCE
276 4470 GUERNUT PASCAL 07:37:16:000 D 111 218.50 CHEVILLY LA RUE, FRANCE
277 132 FREZIERES JEROME 07:37:23:000 D 112 217.35 MAISONS ALFORT, FRANCE
278 4145 QUINT CEES 07:37:36:000 D 113 216.20 DEIL, Pays-Bas
279 3608 BRUANT PHILIPPE 07:37:39:000 E 74 261.05 pau, FRANCE
280 3737 MONTEIRO FREDERIC 07:38:09:000 C 74 261.05 LIMOGES, France
281 1829 PRIETO GINES JAVIER 07:38:28:000 D 114 215.05 CASTELLON DE LA PLANA, ESPAGNE
282 3126 PROOST HERMAN 07:38:46:000 E 75 259.90 GIERLE, BELGIQUE
283 333 ALVAREZ RODRIGUEZ MANUEL 07:39:10:000 E 76 258.75 ESCALDES, ANDORRE
284 1673 VAN DEN HOUT REMON 07:39:20:000 C 75 259.90 S HERTOGENBOSCH, Pays-Bas
285 324 VAN BELLINGEN DANNY 07:39:23:000 E 77 257.60 NINOVE POLLARE, BELGIQUE
286 274 VIALA REMY 07:39:48:000 D 115 213.90 VILLEURBANNE, FRANCE
287 1981 CARTY JEAN 07:39:49:000 C 76 258.75 CHELTENHAM, Royaume-Uni
288 228 VRIJDERS CHRIS 07:39:52:000 E 78 256.45 BUGGENHOUT, BELGIQUE
289 5430 DUMAS CYRIL 07:40:02:000 D 116 212.75 GENEVE, SUISSE
290 169 BREILLY MARC ANTOINE 07:40:04:000 E 79 255.30 LA FARLEDE, FRANCE
291 351 BUSSIERES LIZANNE 07:40:27:000 AB 2 343.85 ST JEANNET, FRANCE
292 5215 JANSSEN MICHIEL 07:40:40:000 D 117 211.60 TILBURG, Pays-Bas
293 439 HARREVELT LENNART 07:40:50:000 C 77 257.60 DELFT, Pays-Bas
294 5634 AALBERS HARMEN 07:40:57:000 C 78 256.45 NIJMEGEN, Pays-Bas
295 4333 O BRIAN STEVE 07:40:59:000 E 80 254.15 SURREYRHUS, 11
296 1243 DE SCHUTTER JORIS 07:41:18:000 E 81 253.00 WUUSTWEZEL, BELGIQUE
297 338 RIBO JEAN MARIE 07:41:26:000 D 118 210.45 ST MARTIN DE VALGALGUES, FRANCE
298 1898 DESMET PASCAL 07:41:31:000 C 79 255.30 kortrijk, Belgique
299 3144 SMITH DAMIAN 07:41:38:000 D 119 209.30 CUMBRIA, Royaume-Uni
300 4257 GOHN YVES 07:41:38:000 D 120 208.15 PFALZWEYER, France
301 460 VAN BAAK MARCEL 07:41:41:000 D 121 207.00 MONTFOORT, Pays-Bas
302 1387 OLESEN JESPER 07:41:41:000 D 122 205.85 AARHUS, DANEMARK
303 3846 BAYOL LAURENT 07:41:47:000 D 123 204.70 FONTVIEILLE, FRANCE
304 2051 BRUGNON ERIC 07:41:53:000 C 80 254.15 BARIZEY, FRANCE
305 3918 GUEGAN MICHEL 07:41:56:000 E 82 251.85 DOMENE, FRANCE
306 20 CHANUT CHRISTOPHE 07:41:58:000 D 124 203.55 CRAPONNE, FRANCE
307 4082 SOLER ENRIQUE 07:42:02:000 D 125 202.40 PINEDO, ESPAGNE
308 149 NICOLAS SERGE 07:42:07:000 E 83 250.70 SOLLIES TOUCAS, FRANCE
309 5105 BOTMAN JORIS CHRISTIAN 07:42:12:000 C 81 253.00 NIJMEGEN, Pays-Bas
310 1107 SOBCSAK LAURENT 07:42:22:000 D 126 201.25 , FRANCE
311 120 METIVIER DANIEL 07:42:34:000 F 17 326.60 SISTERON, FRANCE
312 106 DEGRANGE FRANCOIS 07:42:50:000 F 18 325.45 PARCIEUX, FRANCE
313 5389 BARTHELEMY DANIEL 07:42:51:000 E 84 249.55 BEAUMONT, FRANCE
314 350 CHAFE ROSS 07:42:53:000 E 85 248.40 CHANDOLIN (SAVIESE), SUISSE
315 5943 KRUITHOF THOMAS 07:42:56:000 C 82 251.85 AMSTERDAM, Pays-Bas
316 291 CHAUSSADAS DAVID 07:42:57:000 C 83 250.70 TOULON, FRANCE
317 243 CRISTAEL ROEL 07:43:01:000 C 84 249.55 TESSENDERLO, BELGIQUE
318 860 ALDERSON EDDY 07:43:16:000 F 19 324.30 , BELGIQUE
319 4810 OOSTRA JAAP 07:43:17:000 E 86 247.25 SOEST, Pays-Bas
320 2047 STRAETMANS LOUIS 07:43:24:000 F 20 323.15 PUTTE, BELGIQUE
321 3391 GIELEN STEVE 07:43:25:000 C 85 248.40 NIEUWERKERWEN, BELGIQUE
322 1437 VAN HOOF FRANK 07:43:29:000 D 127 200.10 NETERSEL, Pays-Bas
323 3993 GRIFFITHS ROBIN 07:43:39:000 C 86 247.25 HENLEY ON THAMES, Royaume-Uni
324 558 MENSINK MARTIN 07:43:52:000 G 3 342.70 SIBCULO, Pays-Bas
325 370 VILLACAMPA SYLVAIN 07:44:20:000 C 87 246.10 CHAZAY D AZERGUES, France
326 6438 COUSINA MATHIEU 07:44:20:000 C 88 244.95 69680 - CHASSIEU, France
327 2132 BENZ NORBERT 07:44:30:000 E 87 246.10 BAD RIPPOLDSAU, ALLEMAGNE
328 2176 DUQUAINE PATRICK 07:44:37:000 E 88 244.95 ternat, Belgique
329 1672 VAN DEN NOBELEN JAN 07:44:39:000 E 89 243.80 BOSSCHENHOOTD, Pays-Bas
330 1229 VOETS NICO 07:44:40:000 D 128 198.95 HELCHTEREN, BELGIQUE
331 1810 SPIES JE HAN 07:44:52:000 D 129 197.80 S-GRAVENZANDE, Pays-Bas
332 746 HAAST MARC 07:44:55:000 D 130 196.65 EINDHOVEN, Pays-Bas
333 224 KASLER JENS 07:44:59:000 E 90 242.65 JAEGERSPRIS, DANEMARK
334 245 DAMS MARNIX 07:45:02:000 D 131 195.50 TESSENDERLO, BELGIQUE
335 2329 JACOBS HENK 07:45:02:000 F 21 322.00 HEERUGOWAARD, Pays-Bas
336 898 LUYCKX RONALD 07:45:05:000 D 132 194.35 ESSEN, BELGIQUE
337 4958 GODARD PAUL 07:45:07:000 E 91 241.50 MALLEMOISSON, FRANCE
338 1328 MOENS MARIO 07:45:15:000 E 92 240.35 WACHTEBEKE, BELGIQUE
339 5817 WARNSHAIS WILLEM 07:45:17:000 E 93 239.20 ARNHEM, Pays-Bas
340 150 PONS BERNARD 07:45:19:000 E 94 238.05 AUBAGNE, FRANCE
341 2662 VANDENBULCKE DIRK 07:45:32:000 E 95 236.90 IEPER, BELGIQUE
342 4864 HYDE TIM 07:45:35:000 D 133 193.20 OLD WINDSOR, Royaume-Uni
343 318 BUIJS HUGO 07:45:45:000 C 89 243.80 MEERSEN, Pays-Bas
344 3424 HANSEN HEINE 07:45:45:000 D 134 192.05 MAALOEV, DANEMARK
345 5662 GARAVEL YANN 07:45:55:000 D 135 190.90 saint aupre, FRANCE
346 1291 AZAIS PHILIPPE 07:45:56:000 D 136 189.75 LEZIGNAN, FRANCE
347 681 VAN LAER HANS 07:46:07:000 E 96 235.75 ZOERSEL, BELGIQUE
348 4434 SANTOS NEBOT MIGUEL ANGEL 07:46:12:000 D 137 188.60 CALA BONA (MALLORCA), ESPAGNE
349 400 DEPUYDT DAVID 07:46:23:000 C 90 242.65 GENT, BELGIQUE
350 2046 DOCKX BERT 07:46:26:000 D 138 187.45 PUTTE, BELGIQUE
351 2699 RYAN GAVIN 07:47:06:000 C 91 241.50 LONDON, Royaume-Uni
352 2996 HUYSVELD LUC 07:47:17:000 F 22 320.85 GAVERE, BELGIQUE
353 2594 DE KORT PASCAL 07:47:24:000 E 97 234.60 BEERSE, BELGIQUE
354 4779 ROLLMANN PETER 07:47:24:000 E 98 233.45 ADENAU, Allemagne
355 5712 CARNEY MICHAEL 07:47:26:000 D 139 186.30 HUMMELSTOWN PA, 36
356 4348 MOONENS MAARTEN 07:47:31:000 C 92 240.35 DILBEEK, BELGIQUE
357 3136 HANSSENS CHRISTOPHE 07:47:38:000 E 99 232.30 FLETRE, France
358 4179 GALLE BART 07:47:52:000 D 140 185.15 HERZELE, BELGIQUE
359 1429 EIJKELKAMP ANDRE 07:48:07:000 E 100 231.15 METEREN, Pays-Bas
360 481 VAN BERS JORGEN 07:48:26:000 C 93 239.20 AMSTERDAM, Pays-Bas
361 109 THIRY FREDERIC 07:48:27:000 D 141 184.00 MEYLAN, FRANCE
362 308 SCHMIDT CHRIS 07:48:28:000 D 142 182.85 NIJKERKERVEEN, Pays-bas
363 1828 VIDRE MORALES ALVARO 07:48:31:000 D 143 181.70 ALMENARA, ESPAGNE
364 39 CLEMENT LAURENT 07:48:33:000 E 101 230.00 ANNONAY, France
365 5998 HOEKS TOM 07:48:33:000 C 94 238.05 LOMMEL, BELGIQUE
366 3502 FOURNIER FRANCK 07:48:38:000 D 144 180.55 IRIGNY, FRANCE
367 1448 STEENACKERS PETER 07:48:39:000 D 145 179.40 GENK-BELGIQUE, BELGIQUE
368 2975 CREUWELS JEF 07:48:51:000 F 23 319.70 EIJSDEN, Pays-Bas
369 2189 DI GLERIA OLIVIER 07:48:52:000 D 146 178.25 CHEVENOZ, FRANCE
370 731 SLAVICEK JOSEF 07:48:53:000 D 147 177.10 SVITAVKA, REP. TCHEQUE
371 1776 UITHOVEN ARIE 07:49:13:000 F 24 318.55 UITWIJK, Pays-Bas
372 43 VINIT ANDRE 07:49:36:000 E 102 228.85 MEYLAN, FRANCE
373 1300 VERLEE DANNY 07:49:39:000 E 103 227.70 LETTERHOUTEM, BELGIQUE
374 1044 VIGO ALBERTO 07:49:43:000 D 148 175.95 OFFANENGO CR, ITALIE
375 2158 GAGINO MATTEO 07:49:56:000 C 95 236.90 SAN MICHELE MONDOVI (CN), ITALIE
376 2133 VRANKEN LUC 07:49:58:000 D 149 174.80 MAASMECHELEN, BELGIQUE
377 3567 GARNIER JULIEN 07:50:11:000 C 96 235.75 HERICOURT, FRANCE
378 2695 CHAPMAN CHRIS 07:50:15:000 C 97 234.60 LONDON, Royaume-Uni
379 1043 TRUCCONE GIAN LUCA 07:50:17:000 D 150 173.65 NONE TO, ITALIE
380 207 MC DONNELL RORY 07:50:24:000 C 98 233.45 BRAY, IRLANDE
381 796 ROSSAT FABRICE 07:50:26:000 D 151 172.50 SAINT JEAN DE MAURIENNE, FRANCE
382 1128 DUIJFF J 07:50:30:000 C 99 232.30 LEIDEN, Pays-Bas
383 197 STUTZ J.CLAUDE 07:50:31:000 G 4 341.55 RIXHEIM, FRANCE
384 2487 DI ROSA ALESSANDRO 07:50:38:000 E 104 226.55 CARATE BRIANZA (MI), ITALIE
385 1997 SOETEMANS RAF 07:50:58:000 D 152 171.35 OOSTMALLE, BELGIQUE
386 277 MERTENS TINA 07:51:09:000 A 1 345.00 TESSENDERLO, BELGIQUE
387 6064 DE WINTER PETER 07:51:11:000 E 105 225.40 HOOFOORP, Pays-Bas
388 348 GELEY PATRICK 07:51:24:000 E 106 224.25 CHARETTE, FRANCE
389 5312 SALVINI WILLIAM 07:51:24:000 D 153 170.20 IMMOLA BO, ITALIE
390 948 GARRETT RICHARD 07:51:54:000 D 154 169.05 EDINBURGH, Royaume-Uni
391 775 WAMPACH THIERRY 07:52:01:000 F 25 317.40 BRUXELLES, BELGIQUE
392 5547 CONFORT SYLVAIN 07:52:18:000 C 100 231.15 BRINDAS, FRANCE
393 5575 MESSALTI JEAN LUC 07:52:25:000 E 107 223.10 MONTBENOIT, FRANCE
394 1344 VAN MIEGHEM LUC 07:52:30:000 D 155 167.90 BAZEL (KRUIBEKE), BELGIQUE
395 2298 MOUTHAAN RICADO 07:52:31:000 C 101 230.00 SPIJKENISSE, Pays-Bas
396 1048 PACHER OSCAR 07:52:34:000 E 108 221.95 GRIGNO TN, ITALIE
397 4770 Gianni Zanelli 07:52:37:000 E 109 220.80 Imola, ITALIE
398 4180 DE CLERCQ GEERT 07:52:40:000 D 156 166.75 OOSTAKKER, BELGIQUE
399 3038 SANDER UWE 07:52:50:000 D 157 165.60 ROSENKOPF, ALLEMAGNE
400 1196 DOCLO JAN 07:52:56:000 E 110 219.65 KEERBEREEN, BELGIQUE
401 5581 RODRIGUEZ PARIS ANTONIO 07:53:06:000 E 111 218.50 MADRID, ESPAGNE
403 148 SOBCHACK CHRIS 07:53:17:000 D 158 164.45 LOS ANGELES, 36
404 974 RASMUSSEN CAROL 07:53:17:000 AB 3 342.70 KARLSLUNDE, DANEMARK
405 1234 BERNARD VINCENT 07:53:24:000 D 159 163.30 FRAMERIES, BELGIQUE
406 986 BADEL PHILIPPE 07:53:33:000 E 113 216.20 ROCHE LA MOLIERE, FRANCE
407 3242 GORISSEN REMY 07:53:36:000 C 102 228.85 ST GEERTRUID, Pays-Bas
408 697 VANNESTE PETER 07:53:42:000 D 160 162.15 ZWEGEM, BELGIQUE
409 118 CLEYET MAREL ERNEST 07:53:43:000 E 114 215.05 LYON, FRANCE
410 1365 JAMERS BJORN 07:53:45:000 C 103 227.70 LEOPOLDSBURG, BELGIQUE
411 920 ROOSE YANNIK 07:53:52:000 D 161 161.00 BRUXELLES, Belgique
412 4549 CZISLOWSKI TEAGUE 07:53:54:000 D 162 159.85 PERTH, AUSTRALIE
413 4189 BRUYNINCKX RUDY 07:54:24:000 D 163 158.70 AALST, BELGIQUE
414 3541 LAVASTRE OLIVIER 07:54:25:000 E 115 213.90 GAHARD, FRANCE
415 1295 WELLEMANS JAN 07:54:37:000 D 164 157.55 LENNIK, BELGIQUE
416 2109 ZOPPARDO PATRICK 07:54:40:000 E 116 212.75 BERNIN, FRANCE
418 5318 DIDIERLAURENT NICOLAS 07:54:48:000 D 165 156.40 VAGNEY, FRANCE
419 4816 VAN DE VEN RONNIE 07:54:54:000 D 166 155.25 HELMOND, Pays-Bas
420 3781 BRIDGE MATTHEW 07:55:16:000 C 104 226.55 HUDDERSFIELD, FRANCE
421 4705 RICHECOEUR ALEXANDRE 07:55:24:000 D 167 154.10 SIGNES, FRANCE
422 6129 CASTELIJNS TEUN 07:55:26:000 C 105 225.40 HOOGE MIERDE, Pays-Bas
423 2196 DE VLEESCHOUWER DANNY 07:55:27:000 E 117 211.60 GERAARDSBERGEN, Belgique
424 4123 LAURENT DENIS 07:55:35:000 E 118 210.45 CHARLEVILLE MEZIERES, FRANCE
425 1302 RASMUSSEN JACK 07:55:42:000 C 106 224.25 , DANEMARK
426 455 VAN NUNEN BERTIL 07:55:51:000 E 119 209.30 HELLEVOETSLUIS, Pays-Bas
427 2086 HACKETT DARREN 07:56:06:000 D 168 152.95 DUBLIN, IRLANDE
428 6055 SCARPELLINI ALAN 07:56:12:000 D 169 151.80 , ITALIE
429 1276 CALDERS DIEDERIK 07:56:20:000 E 120 208.15 LONDERZEEL, BELGIQUE
430 31 GARD CHRISTOPHE 07:56:25:000 D 170 150.65 OBERNAI, FRANCE
431 648 Kaimer Claus Hilding 07:56:32:000 E 121 207.00 Viborg, DANEMARK
432 577 DE VOS PIET 07:56:34:000 D 171 149.50 LIEDEKERKE, BELGIQUE
433 3526 TERRIER PHILIPPE 07:57:11:000 E 122 205.85 PERONNAS, FRANCE
434 2181 PETIT JEAN PIERRE 07:57:13:000 E 123 204.70 MESSEIN, FRANCE
435 1782 OOMEN TON 07:57:27:000 C 107 223.10 NEDERHEMERT, Pays-Bas
436 2029 HONIG WIM 07:57:49:000 D 172 148.35 AMSTELVEEN, Pays-Bas
437 891 ARNOUTS DIRK 07:58:02:000 D 173 147.20 ESSEN, BELGIQUE
438 4387 MOSER GILLES 07:58:08:000 D 174 146.05 SCHOENBOURG, FRANCE
439 6295 DE WAARD ARJE 07:58:13:000 C 108 221.95 Dordrecht, Pays-Bas
440 1912 RAHMS FRANS 07:58:20:000 E 124 203.55 WADDINXVEEN, Pays-Bas
441 5551 STOCH MICHAL 07:58:41:000 C 109 220.80 ZAKOPANE, 28
442 2213 HOUTOP RON 07:58:48:000 E 125 202.40 WERVERSHOOF, Pays-Bas
443 5526 MANTOVANI MARC 07:58:53:000 D 175 144.90 CHARENTON LE PONT, FRANCE
444 4672 RUET JULIEN 07:58:54:700 C 110 219.65 LYON, FRANCE
445 2644 BRADSHAW DOUGLAS 07:58:56:000 D 176 143.75 CAMBRIDGE, Royaume-Uni
446 471 SCHLIJPER THEO 07:59:11:000 E 126 201.25 LINSCHOTEN, Pays-Bas
447 1108 MILLET FABRICE 07:59:18:000 C 111 218.50 L HAY LES ROSES, FRANCE
448 5115 BAUDE ALEX 07:59:23:000 D 177 142.60 BERTRIX, BELGIQUE
449 12 MENDOZA FRANCK 07:59:26:000 D 178 141.45 LAIGNES, FRANCE
450 5753 VAN DAMME BART 07:59:31:000 D 179 140.30 LOKEREN, BELGIQUE
451 933 ANSALONI EDDY 07:59:31:600 D 180 139.15 MODENA, ITALIE
452 5496 WEINGART KLAUS 07:59:32:000 D 181 138.00 ST GALLEN, FRANCE
453 111 VAGENENDE FRANK 07:59:34:000 D 182 136.85 ERPE-MERE, BELGIQUE
454 5363 COLIN GUILLAUME 07:59:36:000 C 112 217.35 DAVAYE, France
455 4258 GOHN YVES 07:59:36:600 D 183 135.70 PFALZWEYER, France
456 2177 ROSSET ALAIN 07:59:39:000 E 127 200.10 TOULON, FRANCE
457 1620 ROTMAN GERRIT 07:59:44:000 E 128 198.95 WILSUM, Pays-Bas
458 1278 SMITS ERIC 07:59:48:000 E 129 197.80 NIEUWERKENK A.D. IJSSEL, Pays-Bas
459 1699 VAN MIERT ERIK 07:59:48:100 D 184 134.55 BIERBEEK, BELGIQUE
460 282 ASKAMP SANDER 07:59:53:000 D 185 133.40 UTRECHT, Pays-Bas
461 1565 VAN GESTEL TWAN 07:59:55:700 D 186 132.25 MOERGESTEL, Pays-Bas
462 427 HEEMSKERK JOS 07:59:59:000 F 27 315.10 OUD-ADE, Pays-Bas
463 6561 SCHULMEYR INGO 08:00:07:000 C 113 216.20 GRUNDELFINGEN, ALLEMAGNE
464 624 SIMPSON MIKE 08:00:23:000 D 187 131.10 MARLOW, Royaume-Uni
465 1491 OUDEMAN MENNO 08:00:28:000 D 188 129.95 OOSTERHOUT, Pays-Bas
466 3840 BLANCKAERT BART 08:00:33:000 C 114 215.05 PROVEN, BELGIQUE
467 2682 TE BOEKHORST WANDER 08:00:34:000 D 189 128.80 GAANDEREN, Pays-Bas
468 645 RONDA PAUL 08:00:42:000 E 130 196.65 Maastricht, Pays-Bas
469 914 PEPINO SAMUEL 08:00:46:200 D 190 127.65 SARCEY, France
470 3134 CHARLET BERNARD 08:00:56:000 E 131 195.50 LANTENAY, FRANCE
471 1660 KREGTING JACK 08:01:05:000 D 191 126.50 BEMMEL, Pays-Bas
472 1093 DE GASPERIN ALIAS 08:01:16:000 D 192 125.35 CESIOMAGGIORE BL, ITALIE
473 35 BISTONI MARCO 08:01:22:000 E 132 194.35 PERUGIA, ITALIE
474 327 WILLIATTE HERVE 08:01:24:700 F 28 313.95 LOMPRET, France
475 1410 JONGELING RUDOEF 08:01:29:000 E 133 193.20 WESTZAAM, Pays-Bas
476 2462 BERTET ALAIN 08:01:31:000 F 29 312.80 SANARY, FRANCE
477 1976 CARRE JANNICK 08:01:36:000 E 134 192.05 PRAY, FRANCE
478 5802 RUIZ ESTRAMIANA JESUS 08:01:37:300 C 115 213.90 MADRID, ESPAGNE
479 883 BOUDOT MAXIME 08:01:38:300 C 116 212.75 MELLECEY (GERMOLLES], FRANCE
480 2184 MASSIERA FRANCK 08:01:40:200 D 193 124.20 COUFFOULENS, FRANCE
481 2698 KENNEWAY GORDON 08:01:48:400 D 194 123.05 WEST SUSSEX, Royaume-Uni
482 1361 KETELBUTERS WOUT 08:01:50:000 C 117 211.60 PEER, BELGIQUE
483 2943 FARAON WALTER 08:01:51:000 D 195 121.90 OSNY, FRANCE
484 719 ENTWISTLE CRAIG 08:02:02:000 D 196 120.75 FAUCON, FRANCE
485 1781 BLOM WILLEM 08:02:07:000 C 118 210.45 WIJK EN AALBURG, Pays-Bas
486 527 ARTS HENRI 08:02:10:400 E 135 190.90 OIJEN, Pays-Bas
487 4785 BOUVIER BERNARD 08:02:15:000 E 136 189.75 FONTVIEILLE, FRANCE
488 5804 GARCIA MORAL FRANCISCO JAVIER 08:02:23:000 C 119 209.30 PAN LORENZO DEL ESCORIAL, ESPAGNE
489 923 TOURNIER FRANCK 08:02:28:000 D 197 119.60 LE BIOT, FRANCE
490 2187 BLANCHE PHILIPPE 08:02:28:000 E 137 188.60 LA CIOTAT, FRANCE
491 757 BANK EGEBIRK THOMAS 08:02:28:600 D 198 118.45 HOLSTEBRO, DANEMARK
492 28 VERMEERSCH PAUL 08:02:28:900 E 138 187.45 OUD TURNHOUT, BELGIQUE
493 1171 UITHAM MAX 08:02:40:000 E 139 186.30 LEUTINGEWOLDE, Pays-Bas
494 2218 VAN DER VEER MARTIN 08:03:03:000 D 199 117.30 HERKINGEN, Pays-Bas
495 108 KAMARAD LIONEL 08:03:23:000 E 140 185.15 La Balme de Sillingy, France
496 551 VAN DUINEN PIET 08:03:25:000 G 5 340.40 ZEVENAAR, Pays-Bas
497 1714 VAN DE BELT TOM 08:03:30:000 C 120 208.15 NIJMEGEN, Pays-Bas
498 1760 VAN LOOY PAUL 08:03:33:000 E 141 184.00 GEEL, Belgique
499 587 VAN DIEST PHILIPPE 08:03:39:000 E 142 182.85 DIEST, BELGIQUE
500 1238 QUIRYNEN TOM 08:03:40:500 E 143 181.70 WUUSTWEZEL, BELGIQUE
501 3906 VERSTEEGH TON 08:03:42:000 E 144 180.55 EDE, Pays-Bas
502 1125 DEN DIKKEN ALEXANDER 08:03:43:400 C 121 207.00 NIJKERK, Pays-bas
503 596 VAN DER JEUGDT JOHAN 08:03:48:000 E 145 179.40 Lokeren, Belgique
504 595 OST LUC 08:03:56:000 D 200 116.15 wachtebeke, Belgique
505 5816 SCHELFTHOUT FREDDY 08:03:58:500 F 30 311.65 TERNAT, Belgique
506 970 BROUARD CHRISTIAN 08:04:09:000 F 31 310.50 BAUGY, FRANCE
507 1472 MULDER RICHARD 08:04:13:000 D 201 115.00 DEN HELDER, Pays-Bas
508 5875 HAENTJENS RUDI 08:04:13:000 E 146 178.25 STEKENE, BELGIQUE
509 2310 VAN DIJK STEFAN 08:04:16:000 D 202 113.85 IJSSELMUIDEN, Pays-Bas
510 5633 HENDRIKSEN HENK 08:04:20:000 E 147 177.10 HUISSEN, Pays-Bas
511 3537 MARIJSSE GEERT 08:04:28:000 E 148 175.95 KORTRIJK, BELGIQUE
512 633 GROENENWEGEN MICHEL 08:04:43:000 D 203 112.70 HEEMSTEDE, Pays-Bas
513 5182 LALLEMAND BRUNO 08:04:47:000 E 149 174.80 SANCHEY, FRANCE
514 2004 VAN DAELE RUDI 08:04:48:000 E 150 173.65 ZOMERGEM, BELGIQUE
515 3530 MC NAMARA DAVID 08:04:50:000 D 204 111.55 STAMFORD, Royaume-Uni
516 941 BERNARD NICOLAS 08:04:57:000 C 122 205.85 GIERES, FRANCE
517 2160 ROBERT GILLES 08:05:08:000 F 32 309.35 LE PERREUX SUR MARNE, FRANCE
518 1989 VAN HOLLEBEKE BART 08:05:21:000 D 205 110.40 MEULEBEKE, BELGIQUE
519 4783 LACOCHE CEDRIC 08:05:23:000 C 123 204.70 BOIS D'ARCY, FRANCE
520 2997 CAZZANIGA EGIDIO 08:05:26:400 E 151 172.50 CASSAGO LECCO, ITALIE
521 1905 VANDECAETSBEEK EDDY 08:05:29:000 E 152 171.35 HOELSELT, BELGIQUE
522 5129 COGHE TOM 08:05:33:000 C 124 203.55 LANGEMARK, BELGIQUE
523 1392 VAN OSTAEYEN JOS 08:05:39:300 F 33 308.20 ZOERSEL, BELGIQUE
524 3819 HULSHOF FOLKWIN 08:05:45:000 D 206 109.25 UTRECHT, Pays-Bas
525 340 COLSON EMMA 08:05:45:600 AB 4 341.55 COLLINGWOOD, AUSTRALIE
526 110 JACQUIN GERARD 08:05:46:700 E 153 170.20 BAUME LES DAMES, France
527 3485 CHASTANET LIONEL 08:05:51:000 D 207 108.10 SAINT JULIEN EN GENEVOIS, FRANCE
528 897 KONINGS TOM 08:05:51:900 D 208 106.95 ESSEN, Belgique
529 2632 VAN HULSEN DANNY 08:05:53:000 C 125 202.40 SCHIJNDEL, Pays-Bas
530 3619 ESTEBAN GEOFFREY 08:06:18:000 D 209 105.80 NIMES, FRANCE
531 2490 ANASTASIA ENZO 08:06:19:000 D 210 104.65 SONA (VR), ITALIE
532 367 MCMANUS STUART 08:06:35:000 C 126 201.25 LONDON, Royaume-Uni
533 975 RASMUSSEN RUNE 08:06:44:000 E 154 169.05 KARLSLUNDE, DANEMARK
534 1438 SOETENS JAN 08:06:52:000 D 211 103.50 EINDHOVEN, Pays-Bas
535 310 VERBEEK STANLEY 08:06:57:000 AB 5 340.40 ZUTPHEN, Pays-Bas
536 680 DEBUE BERNARD 08:07:00:000 F 34 307.05 ZWEVEGEM, BELGIQUE
537 5939 MULDER MICHIEL 08:07:09:000 D 212 102.35 ENSCHEDE, Pays-Bas
538 1165 UITHAM JAN 08:07:10:000 E 155 167.90 ZUIDLAREN, Pays-Bas
539 658 VAN EXEL IVO 08:07:10:800 E 156 166.75 RUMMEN, BELGIQUE
540 4934 LAIR FREDERIC 08:07:11:300 C 127 200.10 CASENEUVE, FRANCE
541 3706 SCHULTZ ERIC 08:07:16:000 E 157 165.60 VAIL CO, 36
542 2789 BAELEN FABRICE 08:07:23:000 E 158 164.45 PEGOMAS, FRANCE
543 3592 HOEBERGEN WILLEM 08:07:24:200 C 128 198.95 Heerlen, Pays-Bas
544 2136 BEZ SERGE 08:07:26:000 E 159 163.30 SALON DE PROVENCE, FRANCE
545 494 RINDT MICHIEL 08:07:35:000 E 160 162.15 ZEVENBERGEN, Pays-Bas
546 961 BETTELLI MARCO 08:07:39:400 E 161 161.00 MODENA, ITALIE
547 4730 BLEYNAT ERIC 08:07:40:000 D 213 101.20 MARSEILLE, FRANCE
548 836 VERVLOET PASCAL 08:07:45:000 D 214 100.05 HEIST-POP-DEN-BERG, BELGIQUE
549 1270 GREATOREX JERRY 08:07:55:000 C 129 197.80 HEMEL HEMPSTEAD, Royaume-Uni
550 508 KLEIN POELHUIS JAN 08:08:01:000 C 130 196.65 UTRECHT, Pays-Bas
551 6015 PULLES TON 08:08:14:000 C 131 195.50 EINDHOVEN, Pays-Bas
552 620 JENSEN CLAUS MEJNDAHL 08:08:18:000 E 162 159.85 LYSTRUP, DANEMARK
553 2190 STALDER GILLES 08:08:18:400 E 163 158.70 MORTEAU, France
554 5747 VAN KATWIJK FONS 08:08:23:000 F 35 305.90 OPLOO, Pays-Bas
555 3509 CEULEMANS GEERT 08:08:27:000 D 215 98.90 LIER, BELGIQUE
556 2203 VAN UDEN KLAAS 08:08:32:000 D 216 97.75 AMSTERDAM, Pays-Bas
557 1614 VERWIJS COEN 08:08:35:000 C 132 194.35 BERGEN OP ZOOM, Pays-Bas
558 5107 RIGOBON GIUSEPPE 08:08:37:000 E 164 157.55 TREBASELEGHE PD, ITALIE
559 604 HAUTEKEETE ARNE 08:08:39:000 D 217 96.60 Drongen, Belgique
560 1753 HARDY GERD 08:08:46:000 E 165 156.40 Berchem, Belgique
561 2888 BELLERI LIVIO 08:08:51:000 E 166 155.25 SULZANO, ITALIE
562 349 BOEREBOOM LEON 08:08:54:000 E 167 154.10 BRUNSSUM, Pays-Bas
563 2488 ALMERAS J.MARC 08:08:56:400 E 168 152.95 VEDENE, FRANCE
564 790 RANTA LEO 08:08:56:500 D 218 95.45 GOTHENBURG, SUEDE
565 774 PANNEMANS WIM 08:09:00:000 D 219 94.30 LUMMEN, BELGIQUE
566 1079 ZANOTTI MARIO 08:09:07:000 F 36 304.75 IMOLA, ITALIE
567 307 WESTSTRATE ROEDI 08:09:14:000 E 169 151.80 s-Heer Arendskerke, Pays-Bas
568 959 RYCKBOSCH JAN 08:09:27:000 D 220 93.15 MELSELE, Belgique
569 55 THOMASSON CHRISTOPHE 08:09:32:000 D 221 92.00 CIVRIEUX, FRANCE
570 4014 MYRBERG LARS 08:09:34:600 F 37 303.60 FALUN, 33
571 1104 TISSERANT JEROME 08:09:54:000 C 133 193.20 , FRANCE
572 1259 CAERS RONNI 08:10:21:000 D 222 90.85 MOL, BELGIQUE
573 105 FOURMENTEL YANNICK 08:10:57:000 E 170 150.65 COUDEKERQUE VILLAGE, FRANCE
574 1372 KEYSERS DOMINIQUE 08:10:57:000 D 223 89.70 ZOERSEL, BELGIQUE
575 3477 COSTABEBER LUIGI 08:10:59:600 E 171 149.50 WAREMME, Belgique
576 3130 LABROSSE THOMAS 08:11:00:000 C 134 192.05 VILLEURBANNE, FRANCE
577 1896 BECKERS LODE 08:11:25:000 F 38 302.45 NIEUWERKERKEN, BELGIQUE
578 3806 KAMINSKI DARIUSZ 08:11:30:000 D 224 88.55 GDANSK, POLOGNE
579 4182 DEHULSTER STEVEN 08:11:32:000 D 225 87.40 herzele, BELGIQUE
580 1331 CARTY MICHAEL 08:11:38:000 F 39 301.30 CHELTENHAM, Royaume-Uni
581 1826 HERNANDEZ GABRIEL 08:11:38:900 C 135 190.90 ALGUERIAS, ESPAGNE
582 1830 MOLES BALLESTER JOSE 08:11:39:000 F 40 300.15 NULES CASTELLON, ESPAGNE
583 143 FORT PATRICE 08:11:42:800 F 41 299.00 JUAN LES PINS, FRANCE
584 5124 KOCH ROGER 08:11:48:000 D 226 86.25 HILVERSUM, Pays-Bas
585 2375 MELLAARD TIM 08:11:51:900 C 136 189.75 ABBENBROEK, Pays-Bas
586 902 MARTIN PAUL 08:11:54:600 E 172 148.35 BRENTWOOD ESSEX, Royaume-Uni
587 2493 MANUNZA ANTONIO 08:11:57:100 E 173 147.20 VIGONE, ITALIE
588 2689 CANALE MAURO 08:11:57:300 D 227 85.10 TORRE-PELLICE (TO), ITALIE
589 684 PEIRS GINO 08:12:04:000 D 228 83.95 HARELBEKE, BELGIQUE
590 3664 LEYS PASCAL 08:12:06:100 E 174 146.05 BRUGGE, BELGIQUE
591 4677 STEINKRUEGER WILFRIED 08:12:17:000 F 42 297.85 EUSKIRCHEN, ALLEMAGNE
592 6142 SCHIPPERS RAYMOND 08:12:24:000 E 175 144.90 ZOETERMEER, Pays-Bas
593 6094 SOMASCHINI FABIO 08:12:43:000 D 229 82.80 MARIANO COMENSE, ITALIE
594 1145 BUNNIK OLAF 08:12:50:000 C 137 188.60 VOORSCHOTEN, Pays-Bas
595 1687 BRUYNINCKX BART 08:12:55:700 D 230 81.65 LIERDE, BELGIQUE
596 2905 MARSZALEK DANIEL 08:12:55:900 D 231 80.50 SOPOT, POLOGNE
597 1244 RIBBENS MARC 08:12:57:000 E 176 143.75 WUUSTWEZEL, BELGIQUE
598 2104 TAYLOR BARRY 08:13:10:000 D 232 79.35 CHENIERS, FRANCE
599 2206 TERLOUW FREEK 08:13:15:000 C 138 187.45 Muiden, Pays-Bas
600 2412 REGA CARMINE 08:13:20:500 D 233 78.20 MERCATO SAN SEVERINO SA, ITALIE
601 1020 SINIBALDI ERMES 08:13:20:600 F 43 296.70 ZOLA PREDOSA, ITALIE
602 178 DELAGRANGE ANTOINE 08:13:38:000 F 44 295.55 LE CANNET, France
603 5062 LOUAGIE LORENZO 08:13:41:000 D 234 77.05 WESTROZEBEKE, BELGIQUE
604 2649 LABORIE RICHARD 08:13:48:000 D 235 75.90 PACIFIC PALISADES, 36
605 2091 POPPE KENNETH 08:13:56:700 D 236 74.75 ZELZATE, BELGIQUE
606 4707 BOURREAU JACQUES 08:14:05:000 E 177 142.60 COGOLIN, France
607 512 GRAAFMANS CAS 08:14:07:500 D 237 73.60 RIJEN, Pays-bas
608 1527 CRUTZEN MARC 08:14:08:800 D 238 72.45 PRINSENBEEK, Pays-bas
609 5763 D OPERE ERIK 08:14:13:000 D 239 71.30 WOLVERTEM, BELGIQUE
610 1353 EVRARD JEAN PAUL 08:14:16:000 E 178 141.45 BLEGNY, BELGIQUE
611 699 VAN BRAGT DANNY 08:14:18:700 E 179 140.30 ESSEN, BELGIQUE
612 4814 ROIG VIDAL ENRIC 08:14:21:800 F 45 294.40 SABADELL, ESPAGNE
613 190 NOPPEN LEO 08:14:22:000 G 6 339.25 DORDRECHT, Pays-Bas
614 6143 SCHIPPERS ANDRE 08:14:23:400 E 180 139.15 BARENDRECHT, Pays-Bas
615 181 BIANCO EMMANUEL 08:14:25:000 C 139 186.30 TOURRETTE LEVENS, FRANCE
616 1386 NIKLASSON JOHN 08:14:28:000 E 181 138.00 AARHUS, DANEMARK
617 1084 MURA FRANCESCO 08:14:31:000 E 182 136.85 BONORVA SS, ITALIE
618 554 VAN LOON MARCEL 08:14:35:000 D 240 70.15 ETTEN, Pays-Bas
619 5428 ADRIAENSEN HUGO 08:14:49:000 E 183 135.70 BRASSCHAAT, BELGIQUE
620 2008 HOLTEN RAF 08:14:52:100 E 184 134.55 TURNHOUT, BELGIQUE
621 958 KOOPMANN HOLGER 08:15:01:000 D 241 69.00 COLOGNE, ALLEMAGNE
622 1323 KERR TOBY 08:15:02:700 D 242 67.85 LONDON, Royaume-Uni
623 857 JENSEN HENRIK 08:15:11:000 D 243 66.70 RANDERS, DANEMARK
624 444 VERDUIJN JAN 08:15:11:300 F 46 293.25 ZOETERMEER, Pays-Bas
625 2595 VAN DEN BROECK RUDY 08:15:13:000 E 185 133.40 KASTERLEE, BELGIQUE
626 6280 KROL EELCO 08:15:15:000 D 244 65.55 DELFT, Pays-Bas
627 3995 VAN VERSENDAAL THOMAS 08:15:18:000 C 140 185.15 TILBURG, Pays-Bas
628 5449 KOENIG MATTHIAS 08:15:24:000 C 141 184.00 BIENNE, SUISSE
629 1369 SORENSEN PER 08:15:27:000 D 245 64.40 HORSENS, DANEMARK
630 1446 KEES GUIDO 08:15:33:000 E 186 132.25 GENK-BELGIQUE, BELGIQUE
631 5081 BORTOLIN BRUNO 08:15:35:800 C 142 182.85 LINT, BELGIQUE
632 5311 PETIT SEBASTIEN 08:15:37:000 C 143 181.70 GEMBIOUX, BELGIQUE
633 1503 ADELAARS DAAN 08:15:49:000 C 144 180.55 , Pays-Bas
634 4796 MARCONNET PATRICE 08:15:50:000 D 246 63.25 LYON, FRANCE
635 1326 JOLDERSMA JASON 08:15:51:000 D 247 62.10 ASSEN, Pays-Bas
636 1068 GAUDENZI ALBERTO 08:16:00:000 D 248 60.95 MONTEVARCHI, ITALIE
637 1070 BRANDI ALBERTO 08:16:00:600 D 249 59.80 LORO CIUFFENNA, ITALIE
638 1071 CHIANTA MICHELE 08:16:00:700 E 187 131.10 REGGELLO FI, ITALIE
639 3480 BOULVEN LIONEL 08:16:02:000 E 188 129.95 COMBS LA VILLE, FRANCE
640 9293 CLARETON XAVIER 08:16:10:000 D 250 58.65 ST GENIS L'ARGENTIERE, FRANCE
641 985 BARRETO FRANCISCO 08:16:13:000 E 189 128.80 JARRIE, FRANCE
642 1662 VAN DEN DEIJSSEL DANNY 08:16:15:700 C 145 179.40 BAARN, Pays-Bas
643 3564 CIMAN LUCA 08:16:26:000 D 251 57.50 TORINO, ITALIE
644 4782 DE PALMA MONICA 08:16:27:000 AB 6 339.25 TORINO, ITALIE
645 5854 BRUSSE PAUL 08:16:31:400 C 146 178.25 NIJMEGEN, Pays-Bas
646 6002 SMEDING ROLF 08:16:37:000 D 252 56.35 AMSTERDAM, Pays-Bas
647 454 VAN VELZEN PASCAL 08:16:39:000 D 253 55.20 MAASLAND, Pays-bas
648 2169 VINCENT PASCAL 08:16:40:000 D 254 54.05 THURINS, France
649 905 VERHEUL RUBEN 08:16:40:200 D 255 52.90 LEIDERDORP, Pays-Bas
650 5263 PALLAY HUGO 08:16:42:300 C 147 177.10 LE BOUCHAGE, FRANCE
651 6611 RAVIER DAVID 08:16:42:700 D 256 51.75 CROLLES, FRANCE
652 973 HONEGGER PHILIPPE 08:16:43:200 E 190 127.65 BREMBLENS, SUISSE
653 4401 CROISIER ARNAUD 08:16:57:000 C 148 175.95 ELLEMELLE, BELGIQUE
654 3145 CAMPBELL GRAEME 08:17:23:000 D 257 50.60 EGREMONT, Royaume-Uni
655 5898 VAN NUETEN PAUL 08:17:25:000 E 191 126.50 OLEN, BELGIQUE
657 843 VANDEKEREKHOVE EDDY 08:17:29:000 F 47 292.10 TIELT, BELGIQUE
658 1698 MOL PETER JAN 08:17:37:000 D 259 48.30 NIJMEGEN, Pays-Bas
659 6603 JOIRON ERIC 08:17:40:000 E 192 125.35 OPTEVOZ, FRANCE
660 2180 VAN RHYN RUDOLF 08:17:41:000 E 193 124.20 ST MARCEL D URF_, FRANCE
661 1022 COMASTRI LOREDANO 08:17:43:000 F 48 290.95 ZOLA PREDOSA, ITALIE
662 5210 VANMOLECOT STEVEN 08:17:46:600 C 149 174.80 BREDENE, BELGIQUE
663 3743 WIERZCHON MAREK 08:17:49:000 E 194 123.05 LUBLIN, POLOGNE
664 2496 AVICO DANIELE 08:17:56:000 C 150 173.65 MACELLO, ITALIE
665 4530 LEBELLE FRANCK 08:17:57:000 E 195 121.90 TOULOUGES, FRANCE
666 29 UBERTO GILLES 08:18:05:000 E 196 120.75 VOIRON, FRANCE
667 675 VAN GILS DAVE 08:18:05:000 C 151 172.50 WUUSTWEZEL, BELGIQUE
668 2145 SMITH ANTHONY 08:18:17:000 D 260 47.15 LONDON, Royaume-Uni
669 614 DE RAAD PAUL 08:18:21:000 C 152 171.35 AMSTERDAM, Pays-Bas
670 3452 DE GROVE PETER 08:18:23:000 E 197 119.60 NICE, FRANCE
671 3491 BELLOC FRANCIS 08:18:25:000 E 198 118.45 TARBES, France
672 896 NIELSEN MICHAEL 08:18:34:000 D 261 46.00 SAEBY, DANEMARK
673 990 CLIPSTON DAN 08:18:38:000 E 199 117.30 CAVERSHAM, Royaume-Uni
674 322 RIOUALL JEROME 08:18:40:000 D 262 44.85 MONTFERRIER SUR LEZ, FRANCE
675 623 GOOLD DOMINIC 08:18:56:000 D 263 43.70 STAFFS, Royaume-Uni
676 1962 WALRAED RUDI 08:18:57:500 D 264 42.55 ZOTTEGEM, BELGIQUE
677 1166 HOFMAN RON 08:18:59:000 E 200 116.15 GRONINGEN, Pays-Bas
678 1396 MARTIN NEIL 08:19:06:000 E 201 115.00 TAMWORTH, Royaume-Uni
679 5434 PECOULT CHRISTIAN 08:19:12:000 E 202 113.85 CAVAILLON, FRANCE
680 2127 VERVLOET MARC 08:19:12:600 E 203 112.70 HAARLEM, Pays-Bas
681 850 VAN DROMME ROBERT 08:19:16:000 E 204 111.55 ST AMANDS, BELGIQUE
682 2410 TORTORA ALFREDO 08:19:16:000 C 153 170.20 MONTECORVINO ROSELLA SA, ITALIE
683 6067 BROE PETER 08:19:46:000 F 49 289.80 GALTEN, DANEMARK
684 2003 GEERDINK RIK 08:19:49:000 D 265 41.40 ARNHEM, Pays-Bas
685 3443 PAUTHIER VINCENT 08:19:50:700 D 266 40.25 LUGRIN, FRANCE
686 4308 REID PIERRE 08:19:55:000 E 205 110.40 WESTBURY, 13
687 5138 DEBREYNE CARL 08:20:07:000 E 206 109.25 SCHELLE, BELGIQUE
688 4438 VERCAMMEN JAN 08:20:09:200 D 267 39.10 IEPER, BELGIQUE
689 2926 SAUVAGE THIBAULT 08:20:10:900 C 154 169.05 LAON, FRANCE
690 2934 VAN DE WALLE KOEN 08:20:12:800 C 155 167.90 ZOMERGEM, BELGIQUE
691 954 MARTAGNI ENRICO 08:20:17:700 D 268 37.95 PORTILE-MODENA, ITALIE
692 1363 WOUTERS GERRY 08:20:25:000 C 156 166.75 HECHTEL, BELGIQUE
693 2857 VAN TIGGEL ERIK 08:20:25:000 E 207 108.10 ZWIJNDRECHT, BELGIQUE
694 1418 VEELENTURF FERD 08:20:28:000 E 208 106.95 SCHOONHOVEN, Pays-Bas
695 1230 LETEN TONY 08:20:33:000 D 269 36.80 HELCHTEREN, Belgique
696 643 VERON PIERRE 08:20:36:100 E 209 105.80 QUIMPER, FRANCE
697 637 NIELSEN DAN HALAGER 08:20:37:000 D 270 35.65 EGAA, Danemark
698 3474 FOURGNAUD PHILIPPE 08:20:48:000 E 210 104.65 ST CHAMOND, FRANCE
699 956 DAVID WILLY 08:20:49:300 E 211 103.50 GISTEL, BELGIQUE
700 2461 PRONE FRANCESCO 08:20:54:000 E 212 102.35 ALBA, ITALIE
701 695 VANDERBEKE CHRISTOPHE 08:21:09:000 D 271 34.50 ZWEVEGEM, BELGIQUE
702 1700 VERBEECK JAN 08:21:17:000 D 272 33.35 HAACHT, BELGIQUE
703 1206 VANDERHASSELT KLAAS 08:21:23:000 C 157 165.60 KOBBEGEM, BELGIQUE
704 6407 CANTOS CEFERI 08:21:27:000 D 273 32.20 BCN, ESPAGNE
705 768 EGGERMONT NATHAN 08:21:31:000 D 274 31.05 BRUGGE, BELGIQUE
706 625 CARIOU YOHAN 08:21:32:000 C 158 164.45 QUIMPER, FRANCE
707 4378 HASSINK RUTGER J 08:21:36:000 C 159 163.30 HOUTEN, Pays-Bas
709 2103 FERRERE GERARD 08:21:46:000 F 50 288.65 ECHIROLLES, FRANCE
710 313 JUNTE JEROEN 08:21:48:900 C 160 162.15 LELYSTAD, Pays-Bas
711 1528 VAN DER LOOP SJAAK 08:21:49:400 E 214 100.05 OSS, Pays-Bas
712 538 VAN DORST RUUD 08:21:49:600 D 275 29.90 NIJMEGEN, Pays-Bas
713 2292 WINDHOUWER GERARD 08:21:50:000 D 276 28.75 SCHAGEN, Pays-Bas
714 706 NACHTERGAELE MARC 08:21:58:000 E 215 98.90 DENTERGEM, BELGIQUE
715 4950 MATHE THIERRY 08:22:00:000 C 161 161.00 MONTGENEVRE, FRANCE
716 760 BEAUMONT JAMES 08:22:10:000 D 277 27.60 VIRY, FRANCE
717 2808 MROWCZYNSKI PIOTR 08:22:16:000 D 278 26.45 PRUSZKOW, POLOGNE
718 3390 DE ROECK PETER 08:22:23:000 E 216 97.75 LANDEN, BELGIQUE
719 1336 HAEGEMAN DAVID 08:22:28:000 C 162 159.85 BAVEGEM, Belgique
720 906 PONSERRE SERGE 08:22:34:000 G 7 338.10 CHAPONNAY, FRANCE
721 4338 BLOMMAERT SVEN 08:22:40:000 C 163 158.70 HAMME, BELGIQUE
722 1778 VAN DALEN ROBERT 08:22:41:600 C 164 157.55 ANDEL, Pays-Bas
723 476 VAN DER KNAAP RAMON 08:22:52:000 C 165 156.40 HELLE VOETSHUIS, Pays-Bas
724 1260 LAIGNEAU THIERRY 08:22:58:000 D 279 25.30 DESANSANS, FRANCE
725 1950 DANIELS PIERE 08:23:04:000 E 217 96.60 BILZEN, BELGIQUE
726 749 VAN BOXEL ROEL 08:23:04:700 C 166 155.25 TILDONK, BELGIQUE
727 4547 BREARD JEAN-CHARLES 08:23:04:800 C 167 154.10 saint manvieu norrey, France
728 884 DRUET YVES 08:23:10:800 E 218 95.45 CHALON SUR SAONE, FRANCE
729 4901 PRICHARD IAN 08:23:12:100 D 280 24.15 STEAMBOAT SPRINGS, CO, 36
730 3392 REYNDERS LUC 08:23:13:000 D 281 23.00 STAVELOT, BELGIQUE
731 2049 HILL JACK 08:23:18:000 F 51 287.50 VETRAZ-MONTHOUX, FRANCE
732 5192 RIEGER THOMAS 08:23:24:000 D 282 21.85 ZURICH, SUISSE
733 4188 KERCKHOFS LUC 08:23:33:000 F 52 286.35 EREMBODEGEM, BELGIQUE
734 925 STAUSHOLM KENNETH 08:23:35:000 E 219 94.30 ESBJERG N, DANEMARK
735 2182 HOSY PATRICK 08:23:39:000 E 220 93.15 MANOM, FRANCE
736 647 JARLSTIG ANDREAS 08:23:42:000 D 283 20.70 OSTERSUND, 33
737 1299 WILMANS DENNIS 08:23:44:000 D 284 19.55 PURMEREND, Pays-Bas
738 1972 THIEL CHRISTIAN 08:23:46:500 F 53 285.20 SAINT ETIENNE, FRANCE
739 5127 FENOGLIO ARMANDO 08:23:50:200 E 221 92.00 BIBIANA TORINO¦, ITALIE
740 3835 LORGERON JACKY 08:24:03:000 F 54 284.05 LAMOTTE BEUVRON, France
741 1741 REECKMANS MARC 08:24:13:000 F 55 282.90 LUMMEN, BELGIQUE
742 823 CARPON JULIEN 08:24:16:000 C 168 152.95 QUIMPER, FRANCE
743 4398 FANCK DANIEL 08:24:19:000 D 285 18.40 LIEGE, BELGIQUE
744 416 GREVINK EDWIN 08:24:20:000 D 286 17.25 WINTERSWIJK, Pays-Bas
745 2772 STASIAK PAWEL 08:24:23:300 C 169 151.80 OSTROW WIELKOPOLSKI, POLOGNE
746 2255 UITERWIJK WINKEL BERT 08:24:26:000 E 222 90.85 ECHTEN, Pays-Bas
747 2114 FILLON PATRICE 08:24:35:000 D 287 16.10 VOIRON, FRANCE
748 4825 ELZAGIRRE LASA PEDRO 08:24:42:000 E 223 89.70 HERNANI, ESPAGNE
749 2458 ROSSI SANDRO 08:24:43:000 F 56 281.75 SAN POLO D'ENZA ( KE ), ITALIE
750 4774 VYVEY RICHARD 08:24:50:000 E 224 88.55 COTIGNAC, FRANCE
751 2873 JAUGEY DAVID 08:24:53:000 D 288 14.95 TORCY, FRANCE
752 5582 BERGARECHE BORJA 08:25:04:000 F 57 280.60 POZUELO ( MADRID ), ESPAGNE
753 945 DURUPT ALAIN 08:25:05:300 F 58 279.45 NICE, FRANCE
754 71 LAURENT HAMON 08:25:11:000 D 289 13.80 Oze, France
755 822 BROWNE JUSTIN 08:25:15:000 D 290 12.65 BRENTWOOD, Royaume-Uni
756 5674 MOYON AURELIEN 08:25:21:000 C 170 150.65 HERBIGNAC, FRANCE
757 832 HULGREEN JAN 08:25:23:000 E 225 87.40 HORSENS, DANEMARK
758 4515 MACNEIL DEREK 08:25:31:000 D 291 11.50 TORONTO, 13
759 1747 ALLAN PHIL 08:25:36:000 E 226 86.25 ABERDEEN, Royaume-Uni
760 4402 FRANSSEN PASCAL 08:25:40:000 C 171 149.50 ST REMY, BELGIQUE
761 5163 CASSOU-CALARI PHILIPPE 08:25:50:000 E 227 85.10 ODOS, France
762 1204 VANDERHASSELT KAREL 08:26:00:000 E 228 83.95 KOBBEGEM, Belgique
763 931 WAMPACH ETIENNE 08:26:08:000 E 229 82.80 BRUXELLES, BELGIQUE
764 468 KOLFSCHOTEN CHRIS 08:26:10:000 F 59 278.30 MONTFOORT, Pays-Bas
765 469 LOBREGT AART 08:26:10:300 E 230 81.65 MONTFFORT, Pays-Bas
766 1391 NIELSEN CLAUS 08:26:10:300 E 231 80.50 BORKOP, DANEMARK
767 447 GEENEN MARTIJN 08:26:12:000 D 292 11.50 KINDERDIJK, Pays-Bas
768 1732 MAHIEU OLIVIER 08:26:13:100 C 172 148.35 DIKSMUIDE, BELGIQUE
769 2428 DE KNEGT ED 08:26:14:000 E 232 79.35 , Pays-Bas
770 347 BIZEL-BIZELLOT J.MARC 08:26:14:700 E 233 78.20 SAINT ANDRE, FRANCE
771 80 FABRE THIERRY 08:26:22:000 E 234 77.05 ARLES, FRANCE
772 5897 HUYSMANS LUC 08:26:38:000 E 235 75.90 OLEN, BELGIQUE
773 2423 VAN ELK MARTIJN 08:26:49:000 C 173 147.20 , Pays-Bas
774 1780 NIEUWKOOP DINANT 08:26:52:000 C 174 146.05 WIJK EN AALBURG, Pays-Bas
775 5150 BOYER LAURENT 08:26:59:000 D 293 11.50 UXEGNEY, FRANCE
776 2137 CARLE ERIC 08:27:14:000 D 294 11.50 SAINT JEAN BONNEFONDS, FRANCE
777 3924 THEUNISZ PATRICK 08:27:15:900 D 295 11.50 GORINCHEM, Pays-Bas
778 829 RITHNER PIERRE ALAIN 08:27:21:000 F 60 277.15 , SUISSE
779 4792 LIMOUSIN FREDERIC 08:27:23:000 C 175 144.90 CALAIS, FRANCE
780 2606 DIJKSTRA GUUS 08:27:30:000 C 176 143.75 GRONINGEN, Pays-Bas
781 1789 DE HAAN ARJAN 08:27:40:000 D 296 11.50 ROUVEEN, Pays-Bas
782 5053 IRIONDO GOENAGA IBON 08:27:44:000 D 297 11.50 HERNANI, ESPAGNE
783 903 BRIOT JEAN-PAUL 08:27:46:000 E 236 74.75 MOZAC, FRANCE
784 4281 MENINI CHRISTOPHE 08:27:48:000 C 177 142.60 villette de vienne, FRANCE
785 2946 GENETIN MARC 08:27:52:000 D 298 11.50 BEAUCHAMP, FRANCE
786 6393 PAROLLI MAURIZIO 08:28:03:000 E 237 73.60 LUCCA, ITALIE
787 4483 CORBET PATRICK 08:28:04:000 E 238 72.45 VERSAILLES, FRANCE
788 4354 MARTINEZ GOMEZ OSCAR 08:28:11:000 D 299 11.50 CASTELLON, ESPAGNE
789 1697 VAN DE PERRE STEFAAN 08:28:14:900 D 300 11.50 AARTSELAAR, BELGIQUE
790 1632 FONNY MARTENS 08:28:18:000 E 239 71.30 KOEWACHT, Pays-Bas
791 739 DE PEUTER ERIC 08:28:20:000 E 240 70.15 SCHILDE, BELGIQUE
792 5365 WOUTERS PATRICK 08:28:22:000 E 241 69.00 ZOERSEL, BELGIQUE
793 4431 MORENO TERRON JUAN 08:28:29:000 E 242 67.85 , ESPAGNE
794 2456 FIEDLER JESPER 08:28:32:000 E 243 66.70 KAMPALA, OUGANDA
795 5587 DE BONT GLENN 08:28:33:000 C 178 141.45 OOSTENDE, BELGIQUE
796 6332 HANSEN ERIK 08:28:44:000 G 8 336.95 RANDERS, DANEMARK
797 3400 LAUSEN SVEN 08:28:44:800 E 244 65.55 BRANDE, DANEMARK
798 65 GOEGAN PIERRE 08:28:49:000 F 61 276.00 RIANS, France
799 5685 BRUG JOHANNES 08:28:53:000 E 245 64.40 ROTTERDAM, Pays-Bas
800 3507 CUENIN FABRICE 08:29:12:000 D 301 11.50 NEUCHATEL, SUISSE
801 470 VAN WIJNGAARDEN ANDRE 08:29:22:000 D 302 11.50 WOERDEN, Pays-Bas
802 1003 PAOLI EDDY 08:29:26:000 D 303 11.50 MONTEGRANARO AP, ITALIE
803 3044 JONES BENJAMIN 08:29:28:800 D 304 11.50 LONDON, Royaume-Uni
804 252 TAYLOR ELIZABETH 08:29:37:000 A 2 343.85 LOWER TEMPLESTORE, 11
805 292 MOTTA ROBERTO 08:30:09:000 E 246 63.25 LISSONE, ITALIE
806 3855 RENIERS KRISTOF 08:30:12:000 D 305 11.50 LEDE, Belgique
807 2227 HEUSER MICHIEL 08:30:13:100 D 306 11.50 AMERSFOORT, Pays-Bas
808 1158 FLOORE ARNO 08:30:14:000 E 247 62.10 WORMER, Pays-Bas
809 1757 VAN POUCKE FILIP 08:30:22:000 D 307 11.50 TEMSE, BELGIQUE
810 2968 SITTERS WIM 08:30:26:000 E 248 60.95 ZEGGE, Pays-bas
811 4149 DE VLEESSCHAUWER DAVID 08:30:34:000 C 179 140.30 ST.DENIJS WESTREM, BELGIQUE
812 404 OUDE OPHUIS ARNOUD C.W. 08:30:42:000 D 308 11.50 SINT MICHIELSGESTEL, Pays-Bas
813 2593 HAEST EDDY 08:30:47:000 E 249 59.80 VOSSELAAR, BELGIQUE
815 4604 HURTER ANDRE 08:31:10:000 E 250 58.65 LUTRU, SUISSE
816 1129 HAGENAAR J 08:31:31:000 D 309 11.50 S-GRAVENHAGE, Pays-Bas
817 4780 COCQUEMPOT MATTHIEU 08:31:32:000 C 180 139.15 LE PONT DE BEAUVOISIN, FRANCE
818 4397 DANIELS JEAN LUC 08:31:39:000 F 63 273.70 FLERON, BELGIQUE
819 2775 BOGDAJEWICZ GRZEGORZ 08:31:42:300 D 310 11.50 OSTROW WIELKOPOLSKI, 28
820 2400 MARANER MARCO 08:31:48:500 C 181 138.00 MORI TN, ITALIE
821 2299 MOUTHAAN ROB 08:31:55:000 E 251 57.50 SPIJKENISSE, Pays-Bas
822 3475 ROUX OLIVIER 08:31:57:000 E 252 56.35 VAIRES SUR MARNE, FRANCE
823 1641 VAN BEERS TIM 08:31:59:300 E 253 55.20 VEGHEL, Pays-Bas
824 1946 ENGEL CEDRIC 08:32:05:000 D 311 11.50 HEUSY, BELGIQUE
825 315 SMIT ARNO 08:32:08:000 D 312 11.50 WAGENINGEN, Pays-Bas
826 331 QUELIN GERARD 08:32:21:000 E 254 54.05 BONNEVILLE, France
827 5047 WOUTERS ROEL 08:33:00:000 C 182 136.85 BRASSCHAAT, BELGIQUE
828 5837 HISSINK ANCO 08:33:06:000 D 313 11.50 DEN BOSCH, Pays-Bas
829 5513 TRINEL REGIS 08:33:08:400 F 64 272.55 BETHUNE, France
830 1384 EILRICH SIMON 08:33:16:000 E 255 52.90 EGAA, DANEMARK
831 3118 HARTLEY MELVIN 08:33:19:000 E 256 51.75 , Royaume-Uni
832 940 KOPECKY PETR 08:33:27:000 D 314 11.50 VOORSCHOTEN, Pays-Bas
833 2544 VAN DEN BOOMEN JAN 08:33:34:000 D 315 11.50 VELDHOVEN, Pays-bas
834 3580 GEORGES JEROME 08:33:38:000 D 316 11.50 RIGNY, FRANCE
835 3926 DE HOOG JORIS 08:33:53:000 D 317 11.50 CULEMBORG, Pays-Bas
836 1792 DRIESMANS JAN 08:34:02:000 E 257 50.60 ALKEN, BELGIQUE
837 622 JENSEN KENNETH HOLM 08:34:13:000 D 318 11.50 HJORTSHOEJ, Danemark
838 2575 FRANCKAERT JORIS 08:34:23:000 C 183 135.70 SCHELDEWINDEKE, BELGIQUE
839 738 COOLS DIRK 08:34:30:000 E 258 49.45 ESSEN, BELGIQUE
840 5852 VAN DER NEULEN LARS 08:34:44:000 C 184 134.55 NIJMEGEN, Pays-Bas
841 3927 DE HOOG THOMAS 08:34:48:000 D 319 11.50 EINDHOVEN, Pays-Bas
842 3911 SURDIVAL STEPHEN 08:34:50:000 D 320 11.50 DUBLIN, IRLANDE
843 980 MONBY PER STABELL 08:34:52:000 E 259 48.30 SOLROED STR, DANEMARK
844 1389 JENSEN FINN 08:34:59:000 G 9 335.80 VIRUM, DANEMARK
845 4432 DIAZ GAYUBO JOSE-FRANCISCO 08:34:59:700 E 260 47.15 PALMA DE MALORCA, ESPAGNE
846 3345 VICEDO HERVE 08:35:04:000 E 261 46.00 VAUJOURS, FRANCE
847 716 WILLEMSENS LUC 08:35:07:400 E 262 44.85 ARENDONK, BELGIQUE
848 4903 PIT BASTIAN 08:35:09:000 C 185 133.40 BARNEVELD, Pays-Bas
849 3972 KRUIJFF SJOERD 08:35:14:100 D 321 11.50 AMSTERDAM, Pays-Bas
850 4269 SMITH LAWRENCE 08:35:17:000 D 322 11.50 LONDON, Royaume-Uni
851 2633 SENDEN WIEL 08:35:53:000 F 65 271.40 ROTTERDAM, Pays-Bas
852 982 GROEN BOB 08:35:58:000 F 66 270.25 GOUDA, Pays-bas
853 2306 MEIJER RONALD 08:36:00:000 D 323 11.50 NIJMEGEN, Pays-Bas
854 6553 CASASSA PAOLO 08:36:02:500 E 263 43.70 MONCALIERI, Italie
855 6555 FRANCK YVAN 08:36:04:000 E 264 42.55 CLERMONT FERRAND, FRANCE
856 2937 VERMEULEN FRANCK 08:36:05:000 E 265 41.40 BUGGENHOUT, BELGIQUE
857 2525 DUDZIAK ARTUR 08:36:07:000 D 324 11.50 LESZNO, POLOGNE
858 3533 NIOLLET Romuald 08:36:07:000 C 186 132.25 SALLES ARBUISSONNAS, FRANCE
860 4551 GAUGAIN THOMAS 08:36:11:100 C 187 131.10 MESSEI, FRANCE
861 2785 KAJOCH MIROSLAW 08:36:17:900 C 188 129.95 LEZNO, POLOGNE
862 6479 SCANCARELLO FRANCO 08:36:20:000 E 266 40.25 TORINO, ITALIE
863 5849 BECARUD THOMAS 08:36:20:200 C 189 128.80 MANOSQUE, France
864 2254 HOLLANDER HUUB 08:36:30:000 E 267 39.10 IJSSELMUIDEN, Pays-Bas
865 1287 GROOT LAURENS 08:36:36:000 D 325 11.50 ALKMAAR, Pays-Bas
866 2170 PREMEREUR GEERT 08:36:39:000 D 326 11.50 BURST, BELGIQUE
867 1779 NIEUWKOOP GIJSBERT 08:36:40:000 C 190 127.65 WIJK EN AALBURG, Pays-Bas
868 3663 VAN SEVEREN PETER 08:36:41:900 E 268 37.95 BRUGES, BELGIQUE
869 3769 SAMUELS DAVID 08:36:42:600 D 327 11.50 RICHMOND SURREY, Royaume-Uni
870 2058 FAVRE-VERAND JOEL 08:36:43:000 D 328 11.50 APPRIEU, FRANCE
871 1175 VAN EIJK MARCEL 08:36:54:000 D 329 11.50 EMMEN, Pays-Bas
872 5253 ORERO CABALLERO FEDERICO 08:36:58:900 D 330 11.50 REQUENA VALENCIA, ESPAGNE
873 636 POWERS ANDREW 08:37:02:000 D 331 11.50 LONDON, Royaume-Uni
874 323 GIRIN BERNARD 08:37:04:000 F 67 269.10 SAINTE CONSORCE, FRANCE
875 3650 GEERDINK IWANJKA 08:37:29:000 D 332 11.50 LEUSDEN, Pays-Bas
876 3833 ALMIN PATRICK 08:37:32:000 E 269 36.80 VAUX LE PENIL, FRANCE
878 6089 PESSINA MARCO 08:37:38:000 E 270 35.65 LIMBIATE (MI), ITALIE
879 2048 DE VOS PETER 08:37:40:000 E 271 34.50 TERNAT, BELGIQUE
880 4602 BASSOT PATRICK 08:37:41:800 F 68 267.95 QUISSAC, FRANCE
881 3459 BIRLOUEZ JIMMY 08:37:49:000 D 334 11.50 FEIGERES, FRANCE
882 2094 SCHIRTZ SERGE 08:38:00:000 D 335 11.50 FENTAGE, Luxembourg
883 1940 ZUIDHOF ANDRE 08:38:00:700 D 336 11.50 HEERLE, Pays-Bas
884 5708 DE MEY GERD 08:38:19:000 D 337 11.50 ZELE, BELGIQUE
885 1405 STAPHORST GEERT 08:38:26:000 D 338 11.50 VEENOORD, Pays-Bas
886 654 JENSEN HARRY MATTHIESEN 08:38:31:000 E 272 33.35 NIV†, DANEMARK
887 1425 VAN DEN BERGE WILLEM 08:38:36:000 C 191 126.50 DE MEERN, Pays-Bas
888 2457 VAN WEVERENBERGH BRUNO 08:38:37:900 E 273 32.20 BOST, BELGIQUE
889 1433 BRAAT JOHAN 08:38:43:000 E 274 31.05 ZEGGE, Pays-Bas
890 5049 DEZILLIE NIK 08:38:51:000 C 192 125.35 LIER, BELGIQUE
891 3584 PATTINIER MANUEL 08:38:53:600 E 275 29.90 LA BALME DE SILLINGY, FRANCE
892 3923 DE HAAS MARC 08:38:58:500 D 339 11.50 AMSTERDAM, Pays-Bas
893 3925 BOETIUS HANS 08:38:58:500 D 340 11.50 UTRECHT, Pays-Bas
894 5414 DE MEYER JEAN LUC 08:38:59:000 D 341 11.50 WUUSTWEZEL, BELGIQUE
895 1793 VANHAUWAERT RONNY 08:39:27:000 D 342 11.50 BEVEREN WAAS, BELGIQUE
896 5119 MEURIS RUDY 08:39:32:000 E 276 28.75 BERLAAR, BELGIQUE
897 806 DAWE HEATHER 08:39:33:000 A 3 342.70 OTLEY, Royaume-Uni
898 1380 SKOV HANS 08:39:48:000 D 343 11.50 AARHUS, DANEMARK
899 453 VAN TOLEDO TOBIAS 08:39:52:000 C 193 124.20 maassluis, Pays-Bas
900 694 BIJTTEBIER PATRICK 08:39:56:000 E 277 27.60 ZWEVEGEM, BELGIQUE
901 855 VENEMA ELCO 08:39:58:000 F 69 266.80 OOSTERHOUT, Pays-Bas
902 968 TELEN WALTER 08:40:01:000 E 278 26.45 MAASMECHELEN, BELGIQUE
903 2020 LUND THOMAS 08:40:02:000 C 194 123.05 COPENHAGEN S, DANEMARK
904 1042 GIUSEPPE BLASCO 08:40:08:000 E 279 25.30 bevera di ventimiglia, Italie
905 1800 SWANN STEPHEN 08:40:09:000 D 344 11.50 ORPINGTON, Royaume-Uni
906 1157 VAN HOOFF ARJAN 08:40:10:000 D 345 11.50 UTRECHT, Pays-Bas
907 139 MOULIN PAUL 08:40:17:000 F 70 265.65 LOCRONAN, FRANCE
908 1269 PACHOT STEPHANE 08:40:24:000 E 280 24.15 LE VAL ST GERMAIN, FRANCE
909 2753 HACHA DIRK 08:40:25:000 E 281 23.00 KALMTHOUT, BELGIQUE
910 671 OLSEN CARTSEN 08:40:35:000 D 346 11.50 FREDERIKSBERG, DANEMARK
911 1343 BERESFORD DAVID 08:40:39:000 E 282 21.85 SHEFFIELD, Royaume-Uni
912 1092 SACCHET MASSIMO 08:40:49:000 D 347 11.50 CESIOMAGGIORE BL, ITALIE
913 1001 FORESI FRANCESCO 08:40:59:000 D 348 11.50 MONTEGRANARO AP, ITALIE
914 4044 KUNST JOOST 08:41:01:300 C 195 121.90 HOOFDORP, Pays-Bas
915 950 VERMEIRE WIM 08:41:10:000 E 283 20.70 OOSTENDE, BELGIQUE
916 3476 BESSIERE JEREMIE 08:41:12:000 C 196 120.75 MEYSSAC, FRANCE
917 61 RUSSIAS JACQUES 08:41:17:000 G 10 334.65 AMBERT, France
918 2886 GUGLIERO CHRISTOPHE 08:41:22:000 D 349 11.50 ILE ROUSSE, FRANCE
919 3353 MOTSCHWILLER YAN 08:41:24:000 D 350 11.50 MALAIN, FRANCE
921 3024 HUON JEROME 08:41:30:000 C 197 119.60 MONTAILLE, FRANCE
922 885 BIGET ERIC 08:41:37:000 E 285 18.40 POMMEUSE, FRANCE
923 1529 DE CONINCK PAUL 08:41:48:000 F 71 264.50 MALDEGEM, BELGIQUE
924 586 VERDENET FREDERIC 08:41:51:000 D 351 11.50 HOEILAART, BELGIQUE
925 2193 BAUDART ERIC 08:41:54:300 D 352 11.50 , FRANCE
926 4631 CHAMPENOIS JEAN 08:42:07:000 E 286 17.25 CHIMAY, BELGIQUE
927 2168 BERT CHRISTOPHE 08:42:10:000 E 287 16.10 MARSEILLE, FRANCE
928 1928 GRIGNARD BAUDOUIN 08:42:12:000 E 288 14.95 VERVIERS, BELGIQUE
929 4144 ROOMS LUC 08:42:16:000 D 353 11.50 PUURS, BELGIQUE
930 5122 KLAASSEN BRAM 08:42:19:600 D 354 11.50 NIJMEGEN, Pays-Bas
931 5128 ROSTAN CLAUDIO 08:42:23:000 F 72 263.35 LUSERNA S GIOVANNI TO, ITALIE
932 2602 VAN VOORM SANDER 08:42:30:000 C 198 118.45 DEN HAAG, ALLEMAGNE
933 6236 VAN DE VOORT CORNE 08:42:30:000 C 199 117.30 HILVARENBEEK, Pays-Bas
934 962 GERARD DOMINIQUE 08:42:33:000 B 1 345.00 ESSERT, FRANCE
935 2030 BOSMA ROBERT 08:43:13:000 E 289 13.80 AMSTERDAM, Pays-Bas
936 1364 SCHRAEYEN DANNY 08:43:17:900 C 200 116.15 OVERPELT, BELGIQUE
937 685 OLSEN MICHAEL 08:43:23:000 D 355 11.50 COPENHAGEN, DANEMARK
938 1619 PAP JAN 08:43:23:000 C 201 115.00 YSSELMUIDEN, Pays-Bas
939 683 AABYE HANSEN CASPER 08:43:24:000 D 356 11.50 COPENHAGEN, DANEMARK
940 1575 VISSCHERS DICK 08:43:24:000 C 202 113.85 ARNHEM, Pays-Bas
941 966 STRUIKSMA JAN 08:43:24:600 F 73 262.20 ZAANDAM, Pays-Bas
942 5033 RIMMELZWAAN MARK 08:43:25:000 C 203 112.70 VOORSCHCTEN, Pays-Bas
943 669 DROOGENBROODT ERIC 08:43:34:000 F 74 261.05 ZWEVEGEM, BELGIQUE
944 2383 VEKEN TEUN 08:43:40:700 D 357 11.50 UTRECHT, Pays-Bas
945 6145 AHRENS RUDY 08:43:43:000 E 290 12.65 NIJMEGEN, Pays-Bas
946 2178 LAURIN BRUNO 08:43:52:000 E 291 11.50 MORTEAU, FRANCE
947 4919 VAN DUYSE EVERT 08:43:56:000 C 204 111.55 MEEUWEN, Belgique
948 168 DELOFFRE PHILIPPE 08:44:01:000 D 358 11.50 DUNKERQUE, FRANCE
949 556 NIJHOF SANDER 08:44:22:000 C 205 110.40 APELDOORN, Pays-Bas
950 2188 VAN WEVERENBERGH JORIS 08:44:24:000 E 292 11.50 KORBEEK-LO, BELGIQUE
951 1818 ROOVERS PETER 08:44:26:000 D 359 11.50 ESSEN, BELGIQUE
952 432 VAN DOORN CHRISTIAN 08:44:31:000 C 206 109.25 NIEUWERBRUG, Pays-Bas
953 4336 OLLE DAVID 08:44:35:000 E 293 11.50 COLLINGWOOD, AUSTRALIE
954 2696 NEUERT MARKUS 08:44:37:000 D 360 11.50 LONDON, Royaume-Uni
955 251 DROZD PHILIPPE 08:44:38:000 E 294 11.50 ISSANS, FRANCE
956 3959 PENEZ BART 08:44:45:000 E 295 11.50 BRUGGE, BELGIQUE
957 6470 MARTIN GIL XABIER 08:44:57:000 E 296 11.50 PORTOGALETE, ESPAGNE
958 4754 MATHON HENRI 08:45:13:000 E 297 11.50 SAINT MAUR SUR LE LOIR, FRANCE
959 5658 METTON PASCAL 08:45:18:000 E 298 11.50 SAINT MARTIN D HERES, FRANCE
960 137 DELGRANGE ALAIN 08:45:22:000 F 75 259.90 DENAIN, FRANCE
961 965 MACDONALD NIALL 08:45:30:000 E 299 11.50 EDINBURGH, Royaume-Uni
962 275 MAGAND GUY 08:45:39:000 E 300 11.50 HUEZ EN OISANS, FRANCE
963 5889 VANGOETSENHOVEN KENNY 08:45:48:000 C 207 108.10 HAASRODE, BELGIQUE
964 1110 VAN DER VIS PIET 08:45:52:000 E 301 11.50 MARKEN, Pays-Bas
965 911 DIHAEYERE PHILIP 08:45:53:600 D 361 11.50 HEULE, BELGIQUE
966 1525 MULDERIJ JAN 08:46:12:000 E 302 11.50 PESSE, Pays-Bas
967 1237 PALMKOECK LUC 08:46:13:000 E 303 11.50 DE KLINGE, BELGIQUE
968 3376 NOEL ERIK 08:46:18:000 E 304 11.50 ANTWERPEN, BELGIQUE
969 425 VOORNEVELD REINARD 08:46:19:000 E 305 11.50 HOOFDORP, Pays-Bas
970 3963 BOSMANS BART 08:46:22:000 D 362 11.50 WIJGMAAL, BELGIQUE
971 4923 LAURENT YANNICK 08:46:23:000 D 363 11.50 QUIMPER, FRANCE
972 1169 POTS DAVID 08:46:24:000 E 306 11.50 HOOGKERK, Pays-Bas
973 1393 BROWN PHIL 08:46:24:000 D 364 11.50 ABINGDON, Royaume-Uni
974 4139 CASTERET STEVE 08:46:24:000 D 365 11.50 CASTETNAU-CAMBLONG, FRANCE
975 664 COUSINS BEN 08:46:25:300 D 366 11.50 STOCKHOLM, SUEDE
976 2060 FIGUIERE LAURENT 08:46:29:000 D 367 11.50 VOIRON, FRANCE
977 2195 SMITH MALCOLM 08:46:32:000 E 307 11.50 PETERBOROUGH, Royaume-Uni
978 2629 MENNEN TOM 08:46:32:000 C 208 106.95 GRIENDTSVEEN, Pays-Bas
979 3494 D ASCOLI JEAN-PIERRE 08:46:39:000 D 368 11.50 LE VERSOUD, FRANCE
980 2513 ANDERSEN STIG 08:46:48:000 D 369 11.50 SLAGELSE, Danemark
981 467 VERGEER FRED 08:47:09:000 D 370 11.50 MONTFOORT, Pays-Bas
982 1911 FRENCKEN FRIDO 08:47:09:000 D 371 11.50 HOOGLAND, Pays-Bas
983 1762 UITHOVEN JOCHEM 08:47:20:000 C 209 105.80 BABYLONIENBROEK, Pays-Bas
984 1242 KUYPERS PATRICK 08:47:28:000 E 308 11.50 WUUSTWEZEL, BELGIQUE
985 492 VAN NISPEN PETER 08:47:32:000 F 76 258.75 ZEVENBERGEN, Pays-Bas
986 2409 GUERINO ROBERTO 08:47:40:000 E 309 11.50 SALERNO, ITALIE
987 2411 VALIANTE LUIGI MARIA 08:47:40:600 E 310 11.50 SALERNO, ITALIE
988 2059 Christian Sanderhage 08:47:41:000 E 311 11.50 J‘gerspris, DANEMARK
989 2628 VAN DEN MORTEL PETER 08:47:55:000 E 312 11.50 GRIENDTSVEEN, Pays-Bas
990 4599 VINCENT DOMINIQUE 08:47:58:000 E 313 11.50 NUITS SAINT GEORGES, FRANCE
991 5887 COLAUTTI LOUIS 08:48:02:000 F 77 257.60 LA LOUVIERE, BELGIQUE
992 2799 CLARISSE MICHEL 08:48:06:000 D 372 11.50 IEPER, BELGIQUE
993 4818 FRANZ PAOLO 08:48:07:000 F 78 256.45 GLAND, SUISSE
994 545 KOENDERS JAN 08:48:14:100 F 79 255.30 GENDT, Pays-bas
995 1015 CODA RINO 08:48:15:300 E 314 11.50 GUANO, ITALIE
996 3587 TODOROV TODOR 08:48:18:000 D 373 11.50 SOFIA, BULGARIE
997 5271 DEBREYNE PETER 08:48:26:000 D 374 11.50 SCHELLE, BELGIQUE
998 5155 GAY BERTRAND 08:48:36:000 E 315 11.50 VILLEVOCANCE, FRANCE
999 411 SELLINK WILLEM 08:48:40:000 E 316 11.50 AMSTELVEEN, Pays-Bas
1000 4474 BASSET EMMANUEL 08:48:49:000 E 317 11.50 PONT DE BARRET, FRANCE
1001 507 VAN HAM IDO 08:48:51:800 C 210 104.65 UTRECHT, Pays-Bas
1002 2714 DE BONDT ERIC 08:48:52:700 E 318 11.50 LONDERZEEL, BELGIQUE
1003 4083 PENADES VICENTE 08:48:55:000 D 375 11.50 VALENCIA, Espagne
1004 2388 KAGIE NIVARD 08:48:58:000 C 211 103.50 ENGELEN, Pays-Bas
1005 1821 VAN DEN EYNDE MARC 08:49:02:000 E 319 11.50 MECHELEN, BELGIQUE
1006 4297 ZILBETI LAZKANO XABIER 08:49:05:000 E 320 11.50 HERNANI, ESPAGNE
1007 5068 HUGHES PHILIP 08:49:20:000 D 376 11.50 WARWICKSHIRE, Royaume-Uni
1008 2740 HILLEN CHRIS 08:49:24:000 D 377 11.50 VOSSELAAR, BELGIQUE
1009 4301 JORGE VINCENT 08:49:26:000 C 212 102.35 ESCALDES, 25
1010 2113 FILLON JOEL 08:49:32:000 D 378 11.50 VOIRON, FRANCE
1011 4690 DELEEBEECK POL 08:49:33:000 F 80 254.15 HEVER, BELGIQUE
1012 2220 CARO WOUTER 08:49:39:000 C 213 101.20 Amersfoort, Pays-Bas
1013 544 PRICKEN ERIC 08:49:40:500 D 379 11.50 GENDT, Pays-bas
1014 895 VAN LOOVEREN DIRK 08:49:41:200 E 321 11.50 ESSEN, BELGIQUE
1015 2619 KENNIS STIJN 08:49:44:000 D 380 11.50 BLADEL, Pays-Bas
1016 830 SOERENSEN BO 08:50:04:000 D 381 11.50 Horsens, Danemark
1017 2494 BAUDENA ANNAMARIA 08:50:29:000 AB 7 338.10 MONDOVI, ITALIE
1018 882 LE GOUALLEC CHRISTOPHE 08:50:34:000 D 382 11.50 ROSPORDEN, FRANCE
1019 3386 ANNAART PETER 08:50:34:000 D 383 11.50 MOERBEKE, BELGIQUE
1020 5709 VAN KERCKHOVE FILIP 08:51:00:000 D 384 11.50 DENDERMONDE, BELGIQUE
1021 629 IMTHORN LEO 08:51:09:000 G 11 333.50 PAPENDRECHT, Pays-Bas
1022 649 RUIZ DE LA CUESTA RAFAEL 08:51:09:100 D 385 11.50 A CORUNA, ESPAGNE
1023 141 PUECH RICHARD 08:51:19:000 E 322 11.50 LE BAN ST MARTIN, FRANCE
1024 2343 DE VOS BART 08:51:29:000 D 386 11.50 MAASTRICHT, Pays-Bas
1025 4141 CHERPIN JEAN CLAUDE 08:51:32:000 D 387 11.50 DARDILLY, FRANCE
1026 6440 SCHUILING RONALD 08:51:42:000 C 214 100.05 UTRECHT, Pays-bas
1027 5788 FLITTNER MORTEN 08:51:43:000 E 323 11.50 SELSKOR, DANEMARK
1028 824 NOVILLO ANDRES 08:51:47:600 E 324 11.50 JOUARS PONTCHARTRAIN, FRANCE
1029 406 VERMEULEN BAS 08:51:48:000 E 325 11.50 AMSTERDAM, Pays-Bas
1030 825 DIBOINE PATRICE 08:51:49:000 E 326 11.50 ELANCOURT, FRANCE
1031 2200 VICAT LIONEL 08:51:51:000 D 388 11.50 BEAUMONT, FRANCE
1032 2474 VERHAAGH WIEL 08:51:53:000 F 81 253.00 LOTTUM, Pays-Bas
1033 4497 SANDBERGEN DIEDERIK 08:51:56:400 C 215 98.90 EINDHOVEN, Pays-Bas
1034 1205 VAN DOMMELEN HENRICUS 08:51:59:000 D 389 11.50 OISTERWIJK, Pays-Bas
1035 4304 GUIGON REMY 08:52:00:900 E 327 11.50 BARGEMON, FRANCE
1036 4147 DE VLEESSCHAUWER EDDY 08:52:06:000 F 82 251.85 ERTVELDE, BELGIQUE
1037 3430 JENSEN NIELS KAARE 08:52:09:300 D 390 11.50 BRANDE, FINLANDE
1038 1347 DE WINDT RONI 08:52:14:000 E 328 11.50 BINKOM, BELGIQUE
1039 5418 CEUPPENS RUDY 08:52:23:000 D 391 11.50 BRECHT, BELGIQUE
1040 2155 CAPRA HERVE 08:52:28:000 E 329 11.50 SAINT JUST CHALEYSSIN, FRANCE
1041 2597 VANZWIJGENHOVEN PATRICK 08:52:41:000 E 330 11.50 SINT-TRUIDEN, BELGIQUE
1042 3010 VELZEBOER TOM 08:52:51:000 F 83 250.70 M BEEMSTER, Pays-Bas
1043 6250 BERKHOUT ARJO 08:52:51:400 E 331 11.50 NIJMEGEN, Pays-Bas
1044 5947 VAN KUIJK CORNE 08:53:07:000 E 332 11.50 GROESBEEK, Pays-Bas
1045 2336 HEMKE KAMSTRA 08:53:10:000 D 392 11.50 HONSELERSDIJK, Pays-Bas
1046 578 ERNST EDUARD 08:53:21:000 F 84 249.55 LIEDEKERKE, BELGIQUE
1047 927 BARBER ANGUS 08:53:25:100 D 393 11.50 FARNHAM, Royaume-Uni
1048 4388 GROOT MARK 08:53:26:300 C 216 97.75 UTRECHT, Pays-Bas
1049 525 KOSTERMAN ERIC 08:54:02:000 D 394 11.50 BERGHEM, Pays-Bas
1050 1471 BAKKER MARTIN 08:54:05:000 E 333 11.50 DEN HELDER, Pays-Bas
1051 713 DATSON EDWIN 08:54:08:000 D 395 11.50 LONDRES, Royaume-Uni
1052 2406 QUARESIMA ANDREA 08:54:09:900 E 334 11.50 FERMO, Italie
1053 403 OUDE OPHUIS ROLAND 08:54:13:800 D 396 11.50 AMSTERDAM, Pays-Bas
1054 942 MAZZARINI J.CLAUDE 08:54:16:000 F 85 248.40 MEXY, FRANCE
1056 2018 ROWE PETER 08:54:18:100 E 336 11.50 SEVENOAKS KENT, Royaume-Uni
1057 4747 BORRONI LUIGI 08:54:28:000 F 86 247.25 TORINO, ITALIE
1058 3080 MONTEYNE ERIK 08:54:29:000 E 337 11.50 AARTRIJKE, BELGIQUE
1059 1216 BLAKE HENRY 08:54:36:000 C 217 96.60 PEACEHAVEN, Royaume-Uni
1060 2917 AGUETTAZ MICHEL 08:54:45:000 E 338 11.50 PLANAISE, FRANCE
1061 1301 FEARNLEY DAVID 08:54:50:000 D 397 11.50 LONDON, Royaume-Uni
1062 514 LIEBREGTS ARIE 08:54:58:000 E 339 11.50 MIDDELBEERS, Pays-Bas
1063 3027 SCHOONBROODT FREDDY 08:54:58:800 E 340 11.50 ANDRIMONT, BELGIQUE
1064 3539 DUMONT GERVAIS 08:55:01:000 F 87 246.10 THUREY, FRANCE
1065 3358 PATTISSON DAVID 08:55:01:900 D 398 11.50 LONDON, Royaume-Uni
1066 332 COET SYLVAIN 08:55:08:000 C 218 95.45 TOULON, FRANCE
1067 6256 ELEUTERIO APARISI CASTELLAR 08:55:15:000 D 399 11.50 RAFELBUNOL, ESPAGNE
1068 502 GERRITSEN MARTIN 08:55:20:000 E 341 11.50 ZAANDIJK, Pays-Bas
1069 3433 BIRKLUND KJELD 08:55:23:000 F 88 244.95 JAEGERSPRIS, DANEMARK
1070 1375 MARCAILLE FREDDY 08:55:29:000 E 342 11.50 VILLENEUVE LES MAGUELONE, FRANCE
1071 519 DOOMERNIK KAREL 08:55:56:000 E 343 11.50 OSS, Pays-Bas
1072 840 VAN SIMAEY DIETER 08:56:02:000 C 219 94.30 ZINGEM, BELGIQUE
1073 1406 THUL ANDRE 08:56:04:000 D 400 11.50 ZWOLLE, Pays-Bas
1074 1764 VAN BREUGEL HANNEKE 08:56:06:000 A 4 341.55 BEST, Pays-Bas
1075 3758 VIAUD FREDERIC 08:56:07:000 D 401 11.50 SCIEZ, FRANCE
1076 449 BUIJS MARCO 08:56:07:600 E 344 11.50 ROTTERDAM, Pays-Bas
1077 1811 VAN DER BERG CARLO 08:56:23:000 E 345 11.50 MONSTER, Pays-Bas
1078 992 JANSEN JAN 08:56:29:000 F 89 243.80 VOORSCHOTEN, Pays-Bas
1079 5225 VICH ALVAREZ ABDON 08:56:41:000 C 220 93.15 , ESPAGNE
1080 374 DUBRAY DIMITRI 08:56:42:800 C 221 92.00 SAVIGNY SUR ORGE, FRANCE
1081 3685 SCHEIPERS BEN GD 08:56:43:000 D 402 11.50 ANTWERPEN, BELGIQUE
1082 984 TURLAN GERARD 08:56:43:500 F 90 242.65 ESSERT, FRANCE
1083 952 BRACKX ANNICK 08:56:52:000 AB 8 336.95 KAPELLEN, BELGIQUE
1084 4060 ROY THIERRY 08:56:56:000 E 346 11.50 BONDY, FRANCE
1085 777 SMITH GRAHAM 08:57:00:800 E 347 11.50 BILLERICAY, Allemagne
1086 6424 MIRO PASCUAL FELIX 08:57:05:400 E 348 11.50 VILAFRANCA DEL PENEDES (BARCELONA), ESPAGNE
1087 3556 Leveque Olivier 08:57:07:000 D 403 11.50 TOULOUSE, France
1088 2809 BATHIE SYLVAIN 08:57:12:000 D 404 11.50 SAINT PRIEST, FRANCE
1089 4833 CRETOUX PIERRE 08:57:16:000 E 349 11.50 ROZIER COTES D AUREC, FRANCE
1090 5027 GERVEZ FRANCOIS 08:57:17:600 F 91 241.50 GUISSENY, FRANCE
1091 3412 MANN GERT 08:57:18:900 E 350 11.50 TASTRUP, DANEMARK
1092 4527 DEPREZ JOEL 08:57:25:400 F 92 240.35 AIGLEPIERRE, FRANCE
1093 5549 FAURE EDMOND 08:57:32:000 F 93 239.20 SAINT DONAT, FRANCE
1094 963 SINOT CHRISTIAN 08:57:34:700 F 94 238.05 NANCY, FRANCE
1095 993 JANSEN DAVID 08:57:42:000 C 222 90.85 AMSTERDAM, Pays-Bas
1096 1021 MARCHIONI GIORGIO 08:57:50:000 F 95 236.90 ZOLA PREDOSA, ITALIE
1097 5231 NIEUWDORP BASTIAAN 08:57:51:000 C 223 89.70 UTRECHT, Pays-Bas
1098 4718 MAMBRE GILLES 08:57:53:000 E 351 11.50 TOULON, FRANCE
1099 2867 ZOCCOLI GIOVANNA 08:57:58:000 AB 9 335.80 BOLOGNA, ITALIE
1100 3979 PEIRLINCK MARC 08:58:03:000 E 352 11.50 HERENT, BELGIQUE
1101 3751 BOTERMAN WIM 08:58:09:000 E 353 11.50 HAARLEM, Pays-Bas
1102 297 PATTYN FRANCOIS 08:58:11:000 E 354 11.50 Ronchin, France
1103 4314 MERTENS JOHANNES 08:58:22:000 C 224 88.55 LONDERZEEL, BELGIQUE
1104 265 SCHAAP BART 08:58:23:000 E 355 11.50 LOENEN AD VECHT, Pays-Bas
1105 1359 SPOOREN PATRICK 08:58:42:000 E 356 11.50 HECHTEL, BELGIQUE
1106 6127 VAN ZEIJL KARSTEN 08:58:48:000 C 225 87.40 HEGEBEINTUM, Pays-Bas
1107 1304 DE CLERCQ PETER 08:58:50:000 E 357 11.50 LETTERHOUTEM, Belgique
1108 5860 VANDERFAEILLIE PIETER 08:58:52:500 E 358 11.50 LI, Belgique
1109 5987 GILL GRALDINE 08:58:57:000 A 5 340.40 TONQUEDEC, FRANCE
1110 3875 DEN HAESE WILLY 08:59:00:000 E 359 11.50 MOORTSELE, BELGIQUE
1111 1796 JUSKIW BOGDAN 08:59:02:000 E 360 11.50 JUGOW, POLOGNE
1112 510 VISSER BART 08:59:02:600 C 226 86.25 DEN HAAG, Pays-Bas
1113 479 BOSCH JAAP 08:59:05:000 D 405 11.50 DRIEBERGEN RIJSENBURG, Pays-Bas
1114 3503 REYNAUD STEPHANE 08:59:08:000 D 406 11.50 SURESNES, France
1115 1833 MELCHIOSSEN CLAUS 08:59:17:000 E 361 11.50 , DANEMARK
1116 2264 VAN DE WONING GERARD 08:59:24:000 G 12 332.35 LOSSER, Pays-Bas
1117 4186 VAN CROMBRUGGE PHILIPPE 08:59:25:400 E 362 11.50 HERZELE, BELGIQUE
1118 5120 HAGEN MARIO 08:59:30:200 E 363 11.50 S GRAVENLAND, Pays-Bas
1119 4786 COURTEIX OLIVIER 08:59:30:800 D 407 11.50 GEX, FRANCE
1120 337 297814 VAN DEN BERG 08:59:36:000 F 96 235.75 ,
1121 5704 VANDEPERRE RUDIGER 08:59:40:000 E 364 11.50 MERKSEM, BELGIQUE
1122 59 MASERATI SIMON 08:59:45:000 F 97 234.60 CHAMP SUR DRAC, FRANCE
1123 4973 HEYE JOHANNES 08:59:47:500 C 227 85.10 MELLE, BELGIQUE
1124 5711 VAN DAMME ERIC 08:59:48:000 E 365 11.50 ZELE, 5
1125 6514 DOBRINEN ALEX 08:59:49:000 C 228 83.95 SEATTLE LA, 36
1126 2055 KEUR TESSA 09:00:10:000 AB 10 334.65 AMSTELVEEN, Pays-Bas
1127 976 ANDERSEN BIRGER 09:00:15:000 E 366 11.50 VANLOSE, DANEMARK
1128 3783 SNELL ADRIAN 09:00:16:000 C 229 82.80 HOUSTON, 36
1129 2065 NICOLE LAURENT 09:00:23:000 D 408 11.50 MIRIBEL LES ECHELLES, FRANCE
1130 1007 DAMBROSIO MATTEO 09:00:37:000 F 98 233.45 QUARRATA, ITALIE
1131 1258 WOUTERS GUY 09:00:43:000 F 99 232.30 MOL, BELGIQUE
1132 377 KOMINE TSUYOSHI 09:00:50:000 F 100 231.15 ELBEUF, FRANCE
1133 4211 WRENN ROGER 09:00:53:000 G 13 331.20 MACCLESFIELD, Royaume-Uni
1134 5050 VOCHTEN PETER 09:00:53:000 C 230 81.65 MECHELEN, BELGIQUE
1135 325 DE TROYER DIRK 09:00:58:000 E 367 11.50 NINOVE, BELGIQUE
1136 5108 BRUNELLO LORENZO 09:01:01:000 D 409 11.50 ZERO BRANCO TREVISO, ITALIE
1137 493 SILVIUS PETER 09:01:07:000 E 368 11.50 ZEVENBERGEN, Pays-Bas
1138 4146 NEIRYNCK FRANK 09:01:11:000 E 369 11.50 EVERGEM (ERTVELDE), BELGIQUE
1139 3481 PARENT MICHEL 09:01:13:800 D 410 11.50 CAMBON D'ALBI, FRANCE
1140 2526 DUDZIAK BENEDYKT 09:01:35:000 D 411 11.50 LESZNO, POLOGNE
1141 3434 Hasse B›ytler 09:01:37:600 E 370 11.50 J‘gerspris, DANEMARK
1142 4318 HEATHCOCK KLAUS 09:01:40:300 G 14 330.05 DAVENTRY, Royaume-Uni
1143 2884 LENTHALL TREVOR 09:01:42:500 D 412 11.50 GUILDFORD, Royaume-Uni
1144 1977 PUCCIANTI PASCAL 09:01:46:000 E 371 11.50 CREPAND, FRANCE
1145 4311 REIJNIERSE ARJEN 09:01:58:400 D 413 11.50 AMSTERDAM, Pays-Bas
1146 1960 VAN BOXSTAEL DANNY 09:02:00:300 E 372 11.50 OOSTERZELE, BELGIQUE
1147 1082 ANGIUS ANTONIO 09:02:01:000 E 373 11.50 BONORVA SS, ITALIE
1148 414 BOMMERSON BERT 09:02:02:400 E 374 11.50 ASSENDELFT, Pays-Bas
1149 4789 ARMANDO FABRIZIO 09:02:13:000 D 414 11.50 BEINETTE, ITALIE
1150 5082 DE BRUYN STIJN 09:02:39:000 C 231 80.50 KONTICH, BELGIQUE
1151 1414 VAN DIEPEN COEN 09:02:43:000 F 101 230.00 WATERINGEN, Pays-Bas
1152 1298 AERTS EDDY 09:02:50:000 D 415 11.50 TONGEREN, BELGIQUE
1153 1374 GEST MICHEL 09:02:56:900 F 102 228.85 MARCK, FRANCE
1154 303 DEGRAEVE FRANKY 09:03:03:000 E 375 11.50 HOUTHULST, BELGIQUE
1155 1450 VANNESTE PIETER 09:03:17:000 D 416 11.50 WEVELGEM, BELGIQUE
1156 3759 STUBY JEAN LUC 09:03:21:000 E 376 11.50 SAINT-LEGIER, Suisse
1159 2453 SALSI MAURO 09:03:33:000 F 103 227.70 , ITALIE
1160 2452 GIAROLI MARCO 09:03:34:000 E 377 11.50 REGGIO EMILIA, ITALIE
1161 555 VAN BEMMEL ARCO 09:03:40:000 E 378 11.50 ZUTPHEN, Pays-Bas
1162 5570 RODRIGUEZ PENA XAVIER 09:03:42:000 D 417 11.50 CALDES DE MONTBUI, ESPAGNE
1163 918 FLECHEUX BENJAMIN 09:03:49:000 C 232 79.35 CHATILLON SUR SEINE, FRANCE
1164 1045 ANDRIGHETTI ROBERTO 09:03:49:000 D 418 11.50 FONZASO BL, ITALIE
1165 4828 CANO LOPEZ FRANCISCO JAVIER 09:03:49:500 E 379 11.50 CUENCA, ESPAGNE
1166 3953 DONZEL ROLAND 09:03:49:800 F 104 226.55 CHALON SUR SAâNE, FRANCE
1167 1046 STRAPAZZON MORENO 09:03:53:000 D 419 11.50 FONZASO BL, ITALIE
1168 1047 GIACOMIN FABIO 09:03:53:400 E 380 11.50 FONZALO BL, ITALIE
1169 1823 VAN DEN BOSCH TOM 09:04:01:000 C 233 78.20 MECHELEN, BELGIQUE
1170 929 MOGENSEN ERLING 09:04:05:200 E 381 11.50 ISHøJ, DANEMARK
1171 935 CRAMER BETINA 09:04:06:000 A 6 339.25 GREVE, DANEMARK
1172 1836 GHESQUIERE RIK 09:04:06:600 E 382 11.50 DEERLIJK, BELGIQUE
1173 4714 MANFROI CHRISTOPHE 09:04:06:900 D 420 11.50 OTTANGE, FRANCE
1174 907 PLOMPEN PATRICK 09:04:08:000 E 383 11.50 KAPELLEN, BELGIQUE
1175 1819 MONSIEURS JANIK 09:04:12:000 C 234 77.05 KESSEL, BELGIQUE
1176 4614 DANIS PASCAL 09:04:19:000 F 105 225.40 MOUSSAC, FRANCE
1177 1979 GENITONI EMMANUEL 09:04:28:000 E 384 11.50 MONTBARD, FRANCE
1178 2164 PRZYSUSKI MIKAEL 09:04:32:000 E 385 11.50 BROMMA, Suède
1179 1102 KARMAN WILLEM 09:04:37:000 F 106 224.25 VAASSEN, Pays-Bas
1180 6433 GUIGNET PASCAL 09:04:43:000 E 386 11.50 JULIENAS, FRANCE
1181 1109 CORNELIS MARKEN 09:04:50:000 F 107 223.10 , Pays-Bas
1182 630 MIRANDA JOSEPH 09:05:27:000 E 387 11.50 BARGEMON, FRANCE
1183 2630 VAN DEN BEUKEN JOHN 09:05:30:000 E 388 11.50 GRIENDTSVEEN, Pays-Bas
1184 3566 COLOMB GERARD 09:05:35:200 G 15 328.90 CHADRAC, FRANCE
1185 1766 GRAUSS JAN 09:05:39:000 D 421 11.50 BRAKEL, Pays-Bas
1186 608 LINGVALL FREDERIK 09:05:40:500 D 422 11.50 OSLO, NORVEGE
1187 2449 MUTERO JEAN MICHEL 09:06:02:000 F 108 221.95 STE TULLE, FRANCE
1188 362 CAVE JAN 09:06:08:000 B 2 343.85 THOLLET, FRANCE
1189 4334 GORDON SIMON 09:06:17:000 E 389 11.50 MELBOURNE, 11
1190 1488 JANSON EVELIEN 09:06:18:800 A 7 338.10 OSS, Pays-Bas
1191 1891 DYBBRO UFFE 09:06:22:000 D 423 11.50 ROSKILDE, DANEMARK
1192 5152 GEURTS THIJS 09:06:25:000 D 424 11.50 AMSTERDAM, Pays-bas
1193 3750 PINEUR THIERRY 09:06:28:000 C 235 75.90 WASSEIGES, BELGIQUE
1194 1980 BOUHOT STPHANE 09:06:29:400 D 425 11.50 CORROMBLES, FRANCE
1195 4462 HARTH ANDRE 09:06:37:000 E 390 11.50 GENT, BELGIQUE
1196 3275 ROCCHI PAOLO 09:06:39:000 D 426 11.50 ARGENTA FE, ITALIE
1197 2166 SAUSSUS PHIL 09:06:43:000 E 391 11.50 VILLIERS SUR LESSE, BELGIQUE
1198 5541 KAUCZKI MOGENS 09:06:53:000 D 427 11.50 RANDERS, DANEMARK
1199 4151 GOSSELIN PAUL 09:06:55:000 E 392 11.50 ABLON SUR SEINE, FRANCE
1200 632 STEKETEE-VOS SANDRA 09:07:04:000 AB 11 333.50 ROTTERDAM, Pays-Bas
1201 2138 CARLE JULIEN 09:07:10:000 C 236 74.75 SAINT CHAMOND, FRANCE
1202 4711 JARRY MICHEL 09:07:11:000 D 428 11.50 ANNECY, FRANCE
1203 4806 BRAECKMAN GEERT 09:07:12:000 E 393 11.50 LAARNE KALKEN, BELGIQUE
1204 5324 CHRISTIN JEAN LUC 09:07:18:000 D 429 11.50 LAVAL, FRANCE
1205 2661 MESTDAG PIET 09:07:21:000 E 394 11.50 WAREGEM, BELGIQUE
1206 3666 DEKLERCK JEAN PIERRE 09:07:30:000 E 395 11.50 BRUGES, BELGIQUE
1207 2916 FELTRIN THIERRY 09:07:35:900 E 396 11.50 PONTCHARRA, FRANCE
1208 3128 URKENS RENE 09:07:35:900 F 109 220.80 GIERLE, BELGIQUE
1209 812 ADRIAENSENS PATRICK 09:07:36:000 E 397 11.50 MALDEREN, BELGIQUE
1210 1656 WIELAARD PETER 09:07:37:000 D 430 11.50 GOUDA, Pays-bas
1211 2830 VAN REMOORTERE HUGO 09:07:39:000 F 110 219.65 NIEUWKERKEN, BELGIQUE
1212 5584 CHATEL GILBERT 09:07:47:000 E 398 11.50 CROLLES, FRANCE
1213 296 ZANGRANDO MARIO 09:07:47:700 E 399 11.50 BORMIO, ITALIE
1214 3003 DROUAULT DENIS 09:07:48:700 E 400 11.50 LE MANS, FRANCE
1215 5828 WAAL KEES 09:07:49:000 F 111 218.50 ROTTERDAM, Pays-Bas
1216 5994 WIJNSTRA JACOB 09:08:04:000 C 237 73.60 Kapelle, Pays-Bas
1217 6483 DE OLIVEIRA SOUSA FERNANDO 09:08:20:000 E 401 11.50 MAISONS ALFORT, FRANCE
1218 5842 WIND HENK 09:08:34:000 E 402 11.50 STAPHORST, Pays-Bas
1219 4790 REVELLI MARCO 09:08:45:000 C 238 72.45 BEINETTE, ITALIE
1220 6620 HANSEN PHILIP 09:08:45:000 D 431 11.50 COPENHAGEN, DANEMARK
1221 534 IN DE BRAEKT BERT 09:08:59:000 F 112 217.35 MAASTRICHT, Pays-Bas
1222 4029 DEFFAYET LAURENT 09:09:03:000 E 403 11.50 CERNEX, France
1223 2889 PATERLINI VITTORIO 09:09:03:900 D 432 11.50 COLLIO VALTROMPIA, ITALIE
1224 5580 SAMANIEGO JOHAN 09:09:06:000 F 113 216.20 FIGARES, ESPAGNE
1225 795 CAZANAVE CLAUDE 09:09:08:000 E 404 11.50 RIEUX MINERVOIS, FRANCE
1226 2659 KLOOSTER JAAP 09:09:09:600 F 114 215.05 SINT MAARTENSBURG, Pays-Bas
1227 5741 EGGINK HENRY 09:09:12:300 D 433 11.50 ZUIDVEEN, Pays-Bas
1228 3609 VAN DE VELDE KOEN 09:09:15:400 E 405 11.50 BAZEL, BELGIQUE
1229 964 SINOT PATRICK 09:09:18:000 E 406 11.50 MARS LA TOUR, FRANCE
1230 2307 ALTEVEER HENRI 09:09:26:700 E 407 11.50 IJSSELMUIDEN, Pays-Bas
1231 2221 DE RUITER MARTIN 09:09:36:000 E 408 11.50 UTRECHT, Pays-bas
1232 2183 BAUDART ERIC 09:09:54:000 D 434 11.50 HETTANGE GRANDE, FRANCE
1233 2900 TIMMINS STEVE 09:10:09:000 E 409 11.50 , Royaume-Uni
1234 1470 DE JONG ALFRED 09:10:13:000 E 410 11.50 HOORN, Pays-bas
1235 2467 COMPERNOLLE FREDDY 09:10:14:000 E 411 11.50 OOSTDUINKERKE, BELGIQUE
1236 64 FUSTER LOUIS 09:10:19:000 G 16 327.75 ST MARTIN EN BRESSE, FRANCE
1237 5379 DICKSON GORDON 09:10:20:000 D 435 11.50 LANARKSHIRE, Royaume-Uni
1238 3739 VINCENT HERVE 09:10:23:000 D 436 11.50 YSSINGEAUX, FRANCE
1239 943 ETCHART FREDERIC 09:10:24:800 D 437 11.50 ISSY LES MOULINEAUX, FRANCE
1240 3974 LAWSON NICOLAS 09:10:31:000 C 239 71.30 ST GERVAIS DE VIC, FRANCE
1241 6179 HANSEN STEFFEN MUNCH 09:10:43:000 G 17 326.60 SAEBY, DANEMARK
1242 1054 CROCI MAX 09:10:46:000 D 438 11.50 MILANO, ITALIE
1243 848 FIELD JONATHAN 09:10:47:000 E 412 11.50 PRESTON, Royaume-Uni
1244 3274 AGNELUTTO PAOLO 09:10:49:900 D 439 11.50 LIDO DI VENEZIA VE, ITALIE
1245 3803 WOJTYLO ZDZISLAW 09:10:57:000 F 115 213.90 GDANSK, 28
1246 1704 VAN KERCKHOVEN DANY 09:11:07:000 E 413 11.50 LUMMEN, BELGIQUE
1247 5400 MICHEL FRANK 09:11:09:300 E 414 11.50 HALBERSTADT, Allemagne
1248 4546 CASTILLEJO LOPERA JUAN MANUEL 09:11:11:000 D 440 11.50 GRANOLLERS, Espagne
1249 621 SWINHOE ALAN 09:11:19:000 E 415 11.50 Redbourn, Royaume-Uni
1250 4887 JUSTRABO YVES 09:11:26:000 F 116 212.75 LE CHAFFAUT, FRANCE
1251 676 ADRIAANSEN DAVID 09:11:32:000 C 240 70.15 KALMTHOUT, BELGIQUE
1252 6512 SCHOTTE REYNALD 09:11:38:000 D 441 11.50 HAZEBROUCK, FRANCE
1253 3149 HONDTONG URSI 09:11:44:000 AB 12 332.35 OSS, Pays-Bas
1254 3321 WOHL JEAN CLAUDE 09:11:50:000 G 18 325.45 MONTLOUIS SUR LOIRE, FRANCE
1255 1994 ONINK FRANK 09:11:52:000 D 442 11.50 OUDERKERK A/D AMSTEL, Pays-Bas
1256 794 NIELSEN CHRISTIAN 09:12:13:000 D 443 11.50 HORSENS, DANEMARK
1257 1487 RUIJSINK PAUL 09:12:20:000 E 416 11.50 ZALTBOMMEL, Pays-Bas
1258 1275 RICKMAN ROBERT 09:12:26:000 E 417 11.50 OXFORD, Royaume-Uni
1259 3464 RAMOS ORTEGA JOSE MARIA 09:12:26:000 E 418 11.50 BURGOS, ESPAGNE
1260 3702 NYGAARD KJELD 09:12:32:000 D 444 11.50 MAARSLET, Danemark
1261 4840 VEYLAND YOANN 09:12:48:000 C 241 69.00 FONTAINE AU PIRE, FRANCE
1262 1239 AERTS LOUIS 09:12:57:000 E 419 11.50 WUUSTWEZEL, BELGIQUE
1263 3122 POWER DAVID 09:13:11:000 D 445 11.50 JOHANNESBURG, AFRIQUE DU SUD
1264 1080 ALPI LEO 09:13:16:800 E 420 11.50 IMOLA, ITALIE
1265 1666 VERMEER HENK 09:13:17:800 F 117 211.60 LEUSDEN, Pays-Bas
1266 5342 BREGAND FRANCK 09:13:20:000 D 446 11.50 AIX LES BAINS, FRANCE
1267 2910 JAKOB DORA 09:13:28:000 AB 13 331.20 YVERDON LES BAINS, SUISSE
1268 5110 VANHEE MARC 09:13:30:700 E 421 11.50 MEULEBEKE, BELGIQUE
1269 4746 GUILLIN PATRICK 09:13:38:000 D 447 11.50 CHELLES, FRANCE
1270 2159 LEBRUN CHRISTIAN 09:13:48:000 E 422 11.50 EPRAVE, BELGIQUE
1271 1368 JAMON JEROME 09:13:50:900 D 448 11.50 ROMAGNAT, FRANCE
1272 4637 ALLEMAND CLAUDE ALAIN 09:13:57:000 D 449 11.50 AMSTERDAM, Pays-Bas
1273 5130 SWERON LUDO 09:14:17:000 E 423 11.50 WOLVERTEM, Belgique
1274 4492 GEFFROY PHILIPPE 09:14:21:700 F 118 210.45 PLOERMEL, FRANCE
1275 656 SOUTE BERRY 09:14:26:000 F 119 209.30 SCHIMMERT, Pays-bas
1276 5930 NOOT PETER 09:14:30:000 D 450 11.50 EINDHOVEN, Pays-Bas
1277 2480 VERHEIJEN JOHAN 09:14:32:000 D 451 11.50 GEMERT, Pays-Bas
1278 1742 SORENSEN OLE HARBOE 09:14:37:000 F 120 208.15 HASLEV, DANEMARK
1279 4176 QUERE SEBASTIEN 09:14:39:000 C 242 67.85 QUIMPER, FRANCE
1280 2111 CHENOIX RENE 09:14:51:000 E 424 11.50 MARCHE-EN-FAMENNE, BELGIQUE
1281 3432 JORGENSEN BENNY 09:14:52:900 E 425 11.50 GALTEN, DANEMARK
1282 2776 VAN DE WALLE WOUTER 09:14:54:600 D 452 11.50 MALDEGEM, BELGIQUE
1283 3019 DOSSCHE FILIP 09:14:55:600 E 426 11.50 GENT, BELGIQUE
1284 4630 CHAMPENOIS JOSE 09:15:02:000 E 427 11.50 RIEZES, Belgique
1285 2321 WALVARENS JAN 09:15:10:000 E 428 11.50 DRUNEN, Pays-Bas
1286 6275 VAN DOOREN MICHIEL 09:15:12:300 C 243 66.70 VELDHOVEN, Pays-Bas
1287 3256 SZADURO PAWEL 09:15:13:300 D 453 11.50 GDYNIA, 28
1288 3097 AMEEL WIM 09:15:13:700 E 429 11.50 MERKEM, BELGIQUE
1289 1240 JACOBS DANNY 09:15:22:000 D 454 11.50 WUUSTWEZEL, BELGIQUE
1290 2622 AVERHALS EDWIN 09:15:30:000 E 430 11.50 MALDEREN, BELGIQUE
1291 6331 Stig Kjersgaard Nielsen 09:15:30:300 E 431 11.50 J‘gerspris, DANEMARK
1292 176 MASSAUD RICHARD 09:15:48:000 D 455 11.50 VILLEJUIF, FRANCE
1293 1624 NULENS KOEN 09:15:51:000 E 432 11.50 BERINGEN, BELGIQUE
1294 3348 GICQUEL SAMUEL 09:15:54:000 E 433 11.50 GUYANCOURT, FRANCE
1296 1794 LARSEN HASSE 09:16:03:000 F 121 207.00 COPENHAGEN, DANEMARK
1297 5453 MOLES CARLOS 09:16:04:000 D 456 11.50 LAVERUNE, FRANCE
1298 762 SCHMIDT PETERSEN OLE 09:16:09:000 F 122 205.85 HVIDOVRE, DANEMARK
1299 4393 TYRODE DAVID 09:16:11:000 D 457 11.50 LA LONGEVILLE, FRANCE
1300 5603 DE MULDER NOEL 09:16:12:600 E 434 11.50 LETTERHOUTEM, BELGIQUE
1302 1024 STROHMAIER HERBERT 09:16:28:000 F 123 204.70 BOLZANO BZ, ITALIE
1303 343 MARGELIN JEAN PIERRE 09:16:45:000 E 435 11.50 VESOUL, FRANCE
1304 2117 PERRIER GERARD 09:16:56:000 F 124 203.55 VOIRON, FRANCE
1305 505 VAN RENTERGEM ALAIN 09:16:59:000 D 459 11.50 DESTELBERGEN, BELGIQUE
1306 1051 STRAPAZZON ADORNO 09:17:27:000 E 436 11.50 SOVRAMONTE BL, ITALIE
1307 1052 BEE FLORIANO 09:17:27:900 E 437 11.50 SOVRAMONTE BL, ITALIE
1308 5540 TE BRAAKE JOOST 09:17:30:000 C 244 65.55 BP ENSCHEDE, FRANCE
1309 2925 MOREAU SYLVAIN 09:17:34:000 C 245 64.40 SAINT LAURENTNOUAN, FRANCE
1310 5168 CLARKE JONATHAN 09:17:39:000 D 460 11.50 LLANDUONO, Royaume-Uni
1311 1086 PIU ANTONIO MARIA 09:17:50:100 F 125 202.40 BANARI SS, ITALIE
1312 1087 POLINAS GIOVANNI 09:17:50:100 D 461 11.50 BONNANARO SS, ITALIE
1313 4633 DUTECH DAVID 09:17:51:000 C 246 63.25 POITIERS, FRANCE
1314 2548 MAESEN JEROEN 09:17:55:500 C 247 62.10 HASSELT, BELGIQUE
1315 6333 LETH JENS 09:17:57:100 E 438 11.50 RANDERS NV, DANEMARK
1316 691 DESSEIN LUC 09:18:01:000 E 439 11.50 ZWEVEGEM, BELGIQUE
1317 1181 VAN GARDEREN MARTEN 09:18:01:000 D 462 11.50 VOORBURG, Pays-Bas
1318 478 STIGTER TON 09:18:07:000 F 126 201.25 ZEIST, Pays-Bas
1319 1076 ASSENTI CARLO 09:18:12:700 F 127 200.10 RUFINA-MONTEBONELLO, ITALIE
1320 5710 DE COSTER DAVID 09:18:15:000 D 463 11.50 BERLARE, BELGIQUE
1321 4112 LOUBET PATRICK 09:18:19:000 E 440 11.50 TOURBES, FRANCE
1322 1208 BISHOP TOM 09:18:28:000 E 441 11.50 DUNFERMLINE, Royaume-Uni
1323 6465 VAN DER VLEUTEN JOHN 09:18:29:700 E 442 11.50 VELDHOVEN, Pays-Bas
1324 670 VAN OERS ERWIN 09:18:37:000 D 464 11.50 KORTENHOEF, Pays-Bas
1325 1053 PARI MARCO 09:18:43:000 D 465 11.50 FELTRE-BELLUNO, ITALIE
1326 1050 MINAZZATO FERNANDO 09:18:48:000 F 128 198.95 SOVRAMONTE BL, ITALIE
1327 2335 DE GOOIJER RICHARD 09:18:49:000 E 443 11.50 DEN HAAG, Pays-Bas
1328 5239 COENEN JOHAN 09:18:53:000 E 444 11.50 EDE, Pays-Bas
1329 2248 PINGEN GERT JAN 09:18:57:000 D 466 11.50 OOSTERHOUT, Pays-Bas
1330 1081 MURRU GIOVANNI BATTISTA 09:19:06:000 D 467 11.50 THIESI SS, ITALIE
1331 6030 VAN WONDEREN NICO 09:19:17:000 ElitH 1 345.00 KINROOI, BELGIQUE
1332 5361 BORNIER MARC 09:19:26:000 F 129 197.80 VAROIS, FRANCE
1333 6083 JAMES DAVID 09:19:27:000 E 445 11.50 ST JEAN D AULPS, FRANCE
1334 644 ERIKSSON MATS 09:19:33:000 D 468 11.50 ANTIBES, FRANCE
1335 4169 CALLS MARTINEZ JOAN ANTONI 09:19:42:000 E 446 11.50 , FRANCE
1336 6003 DUMARTIER LUC 09:19:46:000 G 19 324.30 ROESELARE, BELGIQUE
1337 2100 MEYER JEROEN 09:19:47:300 D 469 11.50 ROTTERDAM, Pays-Bas
1338 3655 MERTENS GUY 09:19:48:000 E 447 11.50 HERENTALS, BELGIQUE
1339 1708 MORENO ANTHONY 09:19:57:000 C 248 60.95 RIVESALTES, France
1340 5060 VANHOORNWEDER BENNY 09:20:09:000 D 470 11.50 OOSTKAMP, BELGIQUE
1341 4015 DE GRAAF BERT 09:20:36:000 F 130 196.65 MALDEN, Pays-Bas
1342 2566 LEJEUNE PATRICK 09:20:37:100 E 448 11.50 PETIT RECHAIN, BELGIQUE
1343 4463 DOSSCHE LODE 09:20:43:000 F 131 195.50 ST MARTENS LATEM, BELGIQUE
1344 1006 BENELLI GIACOMO 09:20:44:400 F 132 194.35 QUARRATA, ITALIE
1345 5717 KRZYWONOS MARCIN 09:21:01:000 C 249 59.80 KAMIENNA GORA, 28
1346 552 REULING THEO 09:21:12:000 E 449 11.50 DIDAM, Pays-Bas
1347 3955 SEON ALBERT 09:21:14:000 F 133 193.20 CHAPONNAY, FRANCE
1348 2694 PEARSON GUY 09:21:23:000 D 471 11.50 LONDON, Royaume-Uni
1349 4922 LOOZE DENNIS 09:21:36:000 D 472 11.50 ASSENDELFT, Pays-Bas
1350 5945 DEN BESTEN PETER 09:21:43:000 C 250 58.65 AMSTERDAM, Pays-Bas
1351 1210 CONDIE IAN 09:21:44:000 F 134 192.05 DUNFERMLINE, Royaume-Uni
1352 443 VAN RIJN FRANK 09:21:47:100 E 450 11.50 LEIDSCHENDAM, Pays-Bas
1353 2806 VOS ROB 09:21:50:000 E 451 11.50 WESTERLO, BELGIQUE
1354 619 CLARCK JULIAN 09:21:54:000 D 473 11.50 KENT, Royaume-Uni
1355 49 ARENS JEAN CLAUDE 09:22:01:000 F 135 190.90 FROIDECONCHE, FRANCE
1356 2252 SMUDDE GERARD 09:22:05:000 F 136 189.75 LOSSER, Pays-Bas
1357 3120 ROBINSON IAN 09:22:09:000 D 474 11.50 , Royaume-Uni
1358 6273 VAN DOOREN JORIS 09:22:16:000 D 475 11.50 SCHALLUIJK, Pays-Bas
1359 2430 KOOP ANTON 09:22:37:000 F 137 188.60 DEN HOORN, Pays-Bas
1360 3859 WIELEMAN HANS 09:22:41:000 F 138 187.45 DUIVEN, Pays-Bas
1361 5224 MOREY GARAU XAVIER 09:22:53:000 D 476 11.50 BUNYOLA, ESPAGNE
1362 4399 GILBERT CEDRIC 09:22:58:400 C 251 57.50 REMOUCHAMP, BELGIQUE
1363 1195 DUCROUX STEPHANE 09:23:07:000 E 452 11.50 VILLERS LES LUXEUIL, FRANCE
1364 828 HANSEN FRANK 09:23:09:900 E 453 11.50 HORSENS, DANEMARK
1365 5421 WAUTERS RAF 09:23:16:000 C 252 56.35 BEGIJNENDIJK, BELGIQUE
1366 1241 TUMELAIRE BJARNE 09:23:19:000 D 477 11.50 WUUSTWEZEL, BELGIQUE
1367 1019 CALZOLARI RENZO 09:23:21:000 F 139 186.30 BOLOGNA, ITALIE
1368 1709 VERHOFSTE MARC 09:23:43:000 E 454 11.50 BERLARE, BELGIQUE
1369 5206 NOPPEN JORRIT 09:23:53:000 D 478 11.50 DORDRECHT, Pays-Bas
1370 2222 DE VRIES TJIBBE JAN 09:24:09:000 E 455 11.50 UTRECHT, Pays-Bas
1371 1441 HAMMINK RICK 09:24:10:900 D 479 11.50 HERWEN, Pays-Bas
1372 1420 GOUMAN LENNART 09:24:22:000 D 480 11.50 HELLEVOETSLUIS, Pays-Bas
1373 1629 VAN GELDEREN ELLO 09:24:23:000 D 481 11.50 Haarlem, Pays-Bas
1374 740 JUSTENS MARC 09:24:27:000 E 456 11.50 ZOERSEL, BELGIQUE
1375 2660 GROEN JOHN 09:24:30:000 F 140 185.15 SINT MAARTEN, Pays-Bas
1376 627 GROSEN OLE 09:24:38:000 D 482 11.50 ESPGERG, DANEMARK
1377 2954 VANDERVELDEN FILIP 09:24:43:000 F 141 184.00 DILBEEK, BELGIQUE
1378 2993 HAELWAETERS BENNY 09:24:53:000 E 457 11.50 GRIMBERGEN, BELGIQUE
1379 2908 DE PAEPE STEVEN 09:24:54:000 D 483 11.50 Semmerzake, BELGIQUE
1380 5367 GARAVELLI PATRICE 09:24:55:000 F 142 182.85 ST EGREVE, FRANCE
1381 3095 VANDENBUSSCHE PETER 09:24:59:000 D 484 11.50 JABBEKE, BELGIQUE
1382 3135 BERT GEORGES 09:25:05:000 F 143 181.70 LANS EN VERCORS, FRANCE
1383 5048 DE RIDDER BART 09:25:10:000 C 253 55.20 BORGERHOUT, BELGIQUE
1384 2429 DELWEL WOUT 09:25:18:000 F 144 180.55 ROTTERDAM, Pays-Bas
1385 3050 DE CLERCQ FABIEN 09:25:18:000 E 458 11.50 GAVERE, BELGIQUE
1386 4358 RAVERDY MICHEL 09:25:19:000 F 145 179.40 CRUSEILLES, FRANCE
1387 2620 VERDONSCHOT PIETER 09:25:30:000 C 254 54.05 BLADEL, Pays-Bas
1388 5046 SEVENHANS GEERT 09:25:39:000 C 255 52.90 BRASSCHAAT, BELGIQUE
1389 3593 FOYOT JEAN LOUIS 09:25:43:000 F 146 178.25 LAYE, FRANCE
1390 1419 GOUMAN GERTJAN 09:25:48:000 D 485 11.50 HELLEVOETSLUIS, Pays-Bas
1391 969 VAN DEN HELDER RICK 09:25:50:000 C 256 51.75 KOCKENGEN, Pays-Bas
1392 4429 VERSTRAETEN PAUL 09:25:56:000 F 147 177.10 GENTBRUGGE, BELGIQUE
1393 1146 VAN IERSEL JOHANNES 09:26:03:000 F 148 175.95 UTRECHT, Pays-Bas
1394 6284 HELLEBOSCH SVEN 09:26:05:000 C 257 50.60 OVERIJSE, BELGIQUE
1395 4408 BOURGEAIS MAURICE 09:26:06:600 F 149 174.80 BRAINS SUR LES MARCHES, FRANCE
1396 1443 Kaldenhoven Theo 09:26:35:000 F 150 173.65 Herwen, Pays-Bas
1397 4893 GONTIER FRANCIS 09:26:40:000 F 151 172.50 CADALEN, FRANCE
1398 1370 JONKER ALEX 09:26:44:000 D 486 11.50 AMSTERDAM, Pays-Bas
1399 1422 VAN DER LAAN FLOOR 09:26:47:000 F 152 171.35 DORDRECHT, Pays-Bas
1400 6088 MERLO SERAFINO 09:26:54:000 D 487 11.50 BRIOSCO (MI), ITALIE
1401 488 CONTIERO IVAN DANTE 09:26:56:000 D 488 11.50 S MARGHERITA D ADIGE (PO), ITALIE
1402 2263 NIEMAN ED 09:27:05:000 E 459 11.50 OOSTERHOUT, Pays-Bas
1403 299 CAPPELLETTI SILVANO 09:27:11:000 E 460 11.50 , ITALIE
1404 298 ZANGRANDO STEFANO 09:27:12:100 E 461 11.50 BORMIO, ITALIE
1405 1055 CROCI MARIO 09:27:14:000 G 20 323.15 CERRO MAGGIORE MI, ITALIE
1406 567 WEGDAM MARTHIJS 09:27:37:000 D 489 11.50 DALEN, Pays-bas
1407 4267 MOLENBRUGGE THEO 09:27:49:000 D 490 11.50 WAALWIJK, Pays-Bas
1408 1373 JONKER ERIC 09:27:50:000 D 491 11.50 EDE, Pays-Bas
1409 5408 VANDAELE KURT 09:27:54:900 E 462 11.50 MEULEBEKE, BELGIQUE
1410 1617 JANSEN CHRIS 09:27:58:800 D 492 11.50 MAASTRICHT, Pays-Bas
1411 3113 BARKER STEVEN 09:28:09:000 D 493 11.50 , Royaume-Uni
1412 5865 HOOGLAND PAUL 09:28:09:000 D 494 11.50 LEIDEN, Pays-Bas
1413 4167 DE ASIS PINO TIRADO FRANSISCO 09:28:13:000 E 463 11.50 , ESPAGNE
1414 1843 CROWLEY ADRIAN 09:28:23:000 D 495 11.50 CO CORK, IRLANDE
1415 705 NACHTERGAELE GUIDO 09:28:29:000 G 21 322.00 DENTERGEM, BELGIQUE
1416 5228 LADRON DE GUEVARA VICENTE 09:28:31:000 F 153 170.20 VITORA ALAVA, ESPAGNE
1417 819 HUNTER DAVID 09:28:32:200 E 464 11.50 LEEDS, WEST YORKSHIRE, Royaume-uni
1418 227 APPELMAN PIET 09:28:46:000 F 154 169.05 ZUID SCHARWOUDE, Pays-Bas
1419 1899 COLS BRUNO 09:28:46:000 D 496 11.50 HEUSY, BELGIQUE
1420 1209 THOMSON KEN 09:28:51:000 E 465 11.50 COWDENBEATH, Royaume-Uni
1421 2894 MC NALLY STEPHEN 09:28:54:000 E 466 11.50 , IRLANDE
1422 4769 LEMARTINEL MICKAEL 09:28:55:100 C 258 49.45 CLAIREFONTAINE, FRANCE
1423 1341 STEENHOUT DANNY 09:29:02:000 E 467 11.50 HERZELE, BELGIQUE
1424 5807 IVERSEN NICK 09:29:14:000 ElitH 2 343.85 JAEGERSPRIS, DANEMARK
1425 1755 SIMONSEN STEFAN AARUP 09:29:15:200 D 497 11.50 HORSENS, DANEMARK
1426 4307 JANSEN FRANK 09:29:15:700 C 259 48.30 GRONINGEN, Pays-Bas
1427 4025 JOUSTRA EMIEL 09:29:25:000 C 260 47.15 UTRECHT, Pays-Bas
1428 5410 DEBOUVER STEFAAN 09:29:29:000 E 468 11.50 MEULEBEKE, BELGIQUE
1429 1307 DAVEY KELLY 09:29:51:000 D 498 11.50 LONDON, Royaume-Uni
1430 584 SMETS JAN 09:29:52:000 E 469 11.50 DESSEL, BELGIQUE
1431 361 BRUN WILLIAM 09:29:57:000 E 470 11.50 LES ANGLES, FRANCE
1432 1817 GREAVES MARK 09:29:58:100 E 471 11.50 GLOSSOP, Royaume-Uni
1433 2471 CORTEN KRIS 09:30:01:000 C 261 46.00 MERKSEM, BELGIQUE
1434 5484 ROBINS GRAHAM 09:30:05:400 E 472 11.50 LONDON, Royaume-Uni
1435 3143 MALCOLM PHILIP 09:30:06:400 C 262 44.85 CUMBRIA, Royaume-Uni
1436 112 SAURET JACQUES 09:30:10:000 G 22 320.85 CEYRAT, FRANCE
1437 753 DE VROOME ERIC 09:30:13:000 F 155 167.90 VOORBURG, Pays-bas
1438 4197 KRUSIC MARKO 09:30:17:000 E 473 11.50 DOL TOP, 56
1439 1772 VAN DALEN AART 09:30:26:000 F 156 166.75 ANDEL, Pays-Bas
1440 4454 SPANOGHE GUIDO 09:30:28:000 D 499 11.50 LOKEREN, Belgique
1441 2763 KVISTGAARD ROBERT 09:30:31:000 D 500 11.50 GIVE, DANEMARK
1442 4319 CAPRON MICHEL 09:30:33:900 F 157 165.60 HOCHSTATT, FRANCE
1443 5237 CHEMILLE DAVID 09:30:36:100 D 501 11.50 HENNEBONT, FRANCE
1444 4574 SMEETS STEFAN 09:30:45:000 D 502 11.50 HEVERLEE, BELGIQUE
1445 4939 LALLEMAND GILLES 09:30:50:000 E 474 11.50 CASTELNAU LE LEZ, FRANCE
1446 2703 CURRY ANDREW 09:30:51:000 D 503 11.50 EDINBURGH, Royaume-Uni